DLH462 KBOS-EDDH
Flight info
| Callsign | DLH462 |
|---|---|
| Flight time | 6h 25m |
| Altitude | 37000 |
| Route | CELTK7 CELTK DCT FRILL DCT KANNI N97B SUPRY/M082F370 DCT 46N050W 48N040W 49N030W 50N020W DCT SOMAX DCT ATSUR DCT LESLU/N0471F370 DCT BAPHU/N0473F390 DCT GAJIT DCT ENHAQ M197 BRAIN Q295 SOMVA DCT MAVAS DCT SPY N873 ANDIK M105 RIBSO RIBSO7A |
| Aircraft | A343/H-SDE2E3FGHIJ4J5M1RWXY/LB1D1 |
Departure
| Time | 2026-05-07 12:04 |
|---|---|
| Airport | Boston Logan International Airport (KBOS) |
Arrival
| Time | 2026-05-07 18:30 |
|---|---|
| Airport | Hamburg Helmut Schmidt Airport (EDDH) |
| Time | Latitude | Longitude | Altitude | Speed | Heading |
|---|---|---|---|---|---|
| 2026-05-07 11:12 | 42.37056 | -71.02361 | 30 ft | 0 kts | 207° |
| 2026-05-07 11:50 | 42.37059 | -71.02359 | 30 ft | 2 kts | 207° |
| 2026-05-07 11:50 | 42.37070 | -71.02353 | 32 ft | 2 kts | 207° |
| 2026-05-07 11:50 | 42.37085 | -71.02348 | 28 ft | 2 kts | 202° |
| 2026-05-07 11:50 | 42.37097 | -71.02343 | 27 ft | 0 kts | 199° |
| 2026-05-07 11:51 | 42.37099 | -71.02342 | 26 ft | 1 kts | 199° |
| 2026-05-07 11:51 | 42.37103 | -71.02340 | 28 ft | 1 kts | 199° |
| 2026-05-07 11:51 | 42.37107 | -71.02338 | 28 ft | 0 kts | 199° |
| 2026-05-07 11:51 | 42.37111 | -71.02336 | 28 ft | 0 kts | 199° |
| 2026-05-07 11:52 | 42.37124 | -71.02330 | 28 ft | 7 kts | 199° |
| 2026-05-07 11:52 | 42.37164 | -71.02357 | 28 ft | 7 kts | 139° |
| 2026-05-07 11:52 | 42.37190 | -71.02395 | 28 ft | 0 kts | 138° |
| 2026-05-07 11:55 | 42.37183 | -71.02387 | 29 ft | 3 kts | 138° |
| 2026-05-07 11:55 | 42.37162 | -71.02360 | 29 ft | 5 kts | 135° |
| 2026-05-07 11:55 | 42.37140 | -71.02311 | 29 ft | 7 kts | 104° |
| 2026-05-07 11:55 | 42.37155 | -71.02241 | 29 ft | 9 kts | 59° |
| 2026-05-07 11:56 | 42.37206 | -71.02177 | 29 ft | 11 kts | 37° |
| 2026-05-07 11:56 | 42.37242 | -71.02097 | 29 ft | 10 kts | 89° |
| 2026-05-07 11:56 | 42.37227 | -71.01990 | 29 ft | 13 kts | 104° |
| 2026-05-07 11:56 | 42.37183 | -71.01869 | 29 ft | 15 kts | 123° |
| 2026-05-07 11:57 | 42.37120 | -71.01738 | 29 ft | 18 kts | 123° |
| 2026-05-07 11:57 | 42.37038 | -71.01604 | 29 ft | 20 kts | 135° |
| 2026-05-07 11:57 | 42.36937 | -71.01467 | 29 ft | 21 kts | 134° |
| 2026-05-07 11:57 | 42.36835 | -71.01331 | 29 ft | 14 kts | 137° |
| 2026-05-07 11:58 | 42.36767 | -71.01257 | 29 ft | 12 kts | 150° |
| 2026-05-07 11:58 | 42.36687 | -71.01251 | 29 ft | 12 kts | 193° |
| 2026-05-07 11:58 | 42.36599 | -71.01286 | 29 ft | 14 kts | 199° |
| 2026-05-07 11:58 | 42.36506 | -71.01340 | 29 ft | 15 kts | 204° |
| 2026-05-07 11:59 | 42.36417 | -71.01390 | 29 ft | 13 kts | 195° |
| 2026-05-07 11:59 | 42.36342 | -71.01338 | 29 ft | 14 kts | 121° |
| 2026-05-07 11:59 | 42.36291 | -71.01216 | 29 ft | 16 kts | 120° |
| 2026-05-07 11:59 | 42.36235 | -71.01078 | 29 ft | 18 kts | 116° |
| 2026-05-07 12:00 | 42.36185 | -71.00919 | 29 ft | 19 kts | 112° |
| 2026-05-07 12:00 | 42.36129 | -71.00747 | 30 ft | 20 kts | 114° |
| 2026-05-07 12:00 | 42.36078 | -71.00558 | 29 ft | 24 kts | 108° |
| 2026-05-07 12:00 | 42.36021 | -71.00318 | 29 ft | 28 kts | 109° |
| 2026-05-07 12:01 | 42.35946 | -71.00078 | 29 ft | 28 kts | 121° |
| 2026-05-07 12:01 | 42.35832 | -70.99921 | 29 ft | 21 kts | 138° |
| 2026-05-07 12:01 | 42.35727 | -70.99777 | 29 ft | 23 kts | 133° |
| 2026-05-07 12:01 | 42.35615 | -70.99622 | 29 ft | 24 kts | 136° |
| 2026-05-07 12:02 | 42.35498 | -70.99461 | 29 ft | 25 kts | 123° |
| 2026-05-07 12:02 | 42.35513 | -70.99256 | 29 ft | 15 kts | 41° |
| 2026-05-07 12:02 | 42.35539 | -70.99267 | 29 ft | 0 kts | 327° |
| 2026-05-07 12:02 | 42.35542 | -70.99272 | 29 ft | 0 kts | 320° |
| 2026-05-07 12:03 | 42.35561 | -70.99294 | 29 ft | 12 kts | 317° |
| 2026-05-07 12:03 | 42.35742 | -70.99535 | 28 ft | 61 kts | 314° |
| 2026-05-07 12:03 | 42.36144 | -71.00084 | 26 ft | 106 kts | 315° |
| 2026-05-07 12:04 | 42.36763 | -71.00905 | 29 ft | 143 kts | 315° |
| 2026-05-07 12:04 | 42.37529 | -71.01957 | 162 ft | 164 kts | 314° |
| 2026-05-07 12:04 | 42.38294 | -71.03035 | 769 ft | 154 kts | 311° |
| 2026-05-07 12:04 | 42.38934 | -71.04162 | 1391 ft | 150 kts | 302° |
| 2026-05-07 12:05 | 42.39459 | -71.05419 | 1787 ft | 159 kts | 301° |
| 2026-05-07 12:05 | 42.40040 | -71.06738 | 2268 ft | 167 kts | 302° |
| 2026-05-07 12:05 | 42.40611 | -71.08175 | 2648 ft | 182 kts | 296° |
| 2026-05-07 12:05 | 42.40891 | -71.09905 | 2908 ft | 207 kts | 270° |
| 2026-05-07 12:06 | 42.40363 | -71.11861 | 3182 ft | 237 kts | 240° |
| 2026-05-07 12:06 | 42.39375 | -71.13705 | 3830 ft | 245 kts | 236° |
| 2026-05-07 12:06 | 42.38352 | -71.15557 | 4657 ft | 246 kts | 236° |
| 2026-05-07 12:06 | 42.37333 | -71.17410 | 5500 ft | 245 kts | 234° |
| 2026-05-07 12:07 | 42.36087 | -71.18989 | 6359 ft | 249 kts | 216° |
| 2026-05-07 12:07 | 42.34446 | -71.19784 | 7211 ft | 257 kts | 193° |
| 2026-05-07 12:07 | 42.32641 | -71.19544 | 8092 ft | 268 kts | 172° |
| 2026-05-07 12:07 | 42.30889 | -71.18727 | 8865 ft | 272 kts | 170° |
| 2026-05-07 12:08 | 42.29109 | -71.17815 | 9582 ft | 274 kts | 171° |
| 2026-05-07 12:08 | 42.27319 | -71.16909 | 10254 ft | 276 kts | 172° |
| 2026-05-07 12:08 | 42.25499 | -71.15832 | 10562 ft | 302 kts | 161° |
| 2026-05-07 12:08 | 42.23744 | -71.14052 | 10888 ft | 326 kts | 150° |
| 2026-05-07 12:09 | 42.21996 | -71.11986 | 11204 ft | 341 kts | 149° |
| 2026-05-07 12:09 | 42.20185 | -71.09831 | 11520 ft | 355 kts | 149° |
| 2026-05-07 12:09 | 42.18397 | -71.07396 | 11800 ft | 378 kts | 139° |
| 2026-05-07 12:09 | 42.16914 | -71.04397 | 12122 ft | 400 kts | 128° |
| 2026-05-07 12:10 | 42.15812 | -71.00859 | 12595 ft | 422 kts | 111° |
| 2026-05-07 12:10 | 42.15409 | -70.96878 | 13149 ft | 436 kts | 98° |
| 2026-05-07 12:10 | 42.15436 | -70.92751 | 13705 ft | 445 kts | 91° |
| 2026-05-07 12:10 | 42.15702 | -70.88564 | 14196 ft | 451 kts | 88° |
| 2026-05-07 12:11 | 42.16068 | -70.84357 | 14761 ft | 453 kts | 87° |
| 2026-05-07 12:11 | 42.16456 | -70.80131 | 15280 ft | 456 kts | 87° |
| 2026-05-07 12:11 | 42.16827 | -70.75860 | 15730 ft | 462 kts | 88° |
| 2026-05-07 12:11 | 42.17168 | -70.71600 | 16169 ft | 466 kts | 88° |
| 2026-05-07 12:12 | 42.17492 | -70.67226 | 16674 ft | 470 kts | 89° |
| 2026-05-07 12:12 | 42.17801 | -70.62823 | 17144 ft | 474 kts | 89° |
| 2026-05-07 12:12 | 42.18104 | -70.58371 | 17617 ft | 479 kts | 89° |
| 2026-05-07 12:12 | 42.18404 | -70.53890 | 18047 ft | 483 kts | 89° |
| 2026-05-07 12:13 | 42.18706 | -70.49368 | 18550 ft | 486 kts | 89° |
| 2026-05-07 12:13 | 42.19008 | -70.44802 | 18982 ft | 492 kts | 89° |
| 2026-05-07 12:13 | 42.19309 | -70.40243 | 19450 ft | 497 kts | 89° |
| 2026-05-07 12:13 | 42.19615 | -70.35581 | 19932 ft | 502 kts | 89° |
| 2026-05-07 12:14 | 42.19921 | -70.30860 | 20292 ft | 508 kts | 89° |
| 2026-05-07 12:14 | 42.20233 | -70.26095 | 20658 ft | 513 kts | 89° |
| 2026-05-07 12:14 | 42.20548 | -70.21280 | 21024 ft | 517 kts | 89° |
| 2026-05-07 12:14 | 42.20864 | -70.16439 | 21394 ft | 520 kts | 89° |
| 2026-05-07 12:15 | 42.21179 | -70.11557 | 21784 ft | 524 kts | 89° |
| 2026-05-07 12:15 | 42.21494 | -70.06641 | 22159 ft | 529 kts | 89° |
| 2026-05-07 12:15 | 42.21808 | -70.01670 | 22542 ft | 534 kts | 89° |
| 2026-05-07 12:15 | 42.22117 | -69.96728 | 22907 ft | 538 kts | 89° |
| 2026-05-07 12:16 | 42.22431 | -69.91688 | 23245 ft | 542 kts | 89° |
| 2026-05-07 12:16 | 42.22747 | -69.86600 | 23596 ft | 546 kts | 89° |
| 2026-05-07 12:16 | 42.23239 | -69.81504 | 23836 ft | 551 kts | 82° |
| 2026-05-07 12:16 | 42.23937 | -69.76393 | 24098 ft | 555 kts | 81° |
| 2026-05-07 12:17 | 42.24698 | -69.71273 | 24359 ft | 559 kts | 80° |
| 2026-05-07 12:17 | 42.25497 | -69.66119 | 24635 ft | 562 kts | 80° |
| 2026-05-07 12:17 | 42.26309 | -69.60949 | 24898 ft | 565 kts | 80° |
| 2026-05-07 12:17 | 42.27126 | -69.55738 | 25163 ft | 568 kts | 80° |
| 2026-05-07 12:18 | 42.27930 | -69.50574 | 25391 ft | 571 kts | 80° |
| 2026-05-07 12:18 | 42.28739 | -69.45328 | 25720 ft | 572 kts | 80° |
| 2026-05-07 12:18 | 42.29547 | -69.40047 | 25963 ft | 575 kts | 80° |
| 2026-05-07 12:18 | 42.30353 | -69.34746 | 26204 ft | 578 kts | 80° |
| 2026-05-07 12:19 | 42.31160 | -69.29406 | 26441 ft | 581 kts | 80° |
| 2026-05-07 12:19 | 42.31968 | -69.24050 | 26729 ft | 584 kts | 80° |
| 2026-05-07 12:19 | 42.32778 | -69.18656 | 26916 ft | 587 kts | 80° |
| 2026-05-07 12:19 | 42.33586 | -69.13258 | 27255 ft | 587 kts | 80° |
| 2026-05-07 12:20 | 42.34386 | -69.07903 | 27531 ft | 590 kts | 80° |
| 2026-05-07 12:20 | 42.35196 | -69.02460 | 27745 ft | 593 kts | 80° |
| 2026-05-07 12:20 | 42.36010 | -68.96973 | 27942 ft | 596 kts | 80° |
| 2026-05-07 12:20 | 42.36823 | -68.91472 | 28158 ft | 599 kts | 80° |
| 2026-05-07 12:21 | 42.37636 | -68.85946 | 28319 ft | 601 kts | 80° |
| 2026-05-07 12:21 | 42.38451 | -68.80394 | 28633 ft | 601 kts | 80° |
| 2026-05-07 12:21 | 42.39262 | -68.74850 | 28985 ft | 600 kts | 80° |
| 2026-05-07 12:21 | 42.40069 | -68.69311 | 29289 ft | 602 kts | 80° |
| 2026-05-07 12:22 | 42.40867 | -68.63819 | 29448 ft | 605 kts | 80° |
| 2026-05-07 12:22 | 42.41677 | -68.58224 | 29686 ft | 606 kts | 80° |
| 2026-05-07 12:22 | 42.42483 | -68.52636 | 29891 ft | 606 kts | 80° |
| 2026-05-07 12:22 | 42.43283 | -68.47059 | 30295 ft | 602 kts | 80° |
| 2026-05-07 12:23 | 42.44078 | -68.41508 | 30622 ft | 600 kts | 80° |
| 2026-05-07 12:23 | 42.44871 | -68.35951 | 30776 ft | 602 kts | 80° |
| 2026-05-07 12:23 | 42.45660 | -68.30392 | 30986 ft | 602 kts | 80° |
| 2026-05-07 12:23 | 42.46449 | -68.24819 | 31206 ft | 602 kts | 80° |
| 2026-05-07 12:24 | 42.47224 | -68.19323 | 31392 ft | 603 kts | 79° |
| 2026-05-07 12:24 | 42.48006 | -68.13756 | 31684 ft | 600 kts | 79° |
| 2026-05-07 12:24 | 42.48783 | -68.08211 | 31925 ft | 601 kts | 80° |
| 2026-05-07 12:24 | 42.49562 | -68.02631 | 32057 ft | 603 kts | 80° |
| 2026-05-07 12:25 | 42.50337 | -67.97052 | 32267 ft | 603 kts | 80° |
| 2026-05-07 12:25 | 42.51111 | -67.91459 | 32469 ft | 603 kts | 80° |
| 2026-05-07 12:25 | 42.51862 | -67.86011 | 32741 ft | 603 kts | 80° |
| 2026-05-07 12:25 | 42.52647 | -67.80289 | 32971 ft | 604 kts | 80° |
| 2026-05-07 12:26 | 42.53403 | -67.74759 | 33199 ft | 605 kts | 80° |
| 2026-05-07 12:26 | 42.54168 | -67.69146 | 33391 ft | 606 kts | 80° |
| 2026-05-07 12:26 | 42.54930 | -67.63536 | 33579 ft | 606 kts | 80° |
| 2026-05-07 12:26 | 42.55692 | -67.57911 | 33754 ft | 606 kts | 80° |
| 2026-05-07 12:27 | 42.56450 | -67.52293 | 33881 ft | 606 kts | 79° |
| 2026-05-07 12:27 | 42.57204 | -67.46679 | 34150 ft | 603 kts | 79° |
| 2026-05-07 12:27 | 42.57954 | -67.41077 | 34338 ft | 603 kts | 79° |
| 2026-05-07 12:27 | 42.58700 | -67.35485 | 34461 ft | 603 kts | 79° |
| 2026-05-07 12:28 | 42.59444 | -67.29878 | 34600 ft | 603 kts | 79° |
| 2026-05-07 12:28 | 42.60175 | -67.24350 | 34723 ft | 603 kts | 79° |
| 2026-05-07 12:28 | 42.60912 | -67.18751 | 34860 ft | 602 kts | 79° |
| 2026-05-07 12:28 | 42.61643 | -67.13171 | 35141 ft | 599 kts | 79° |
| 2026-05-07 12:29 | 42.62371 | -67.07600 | 35287 ft | 599 kts | 78° |
| 2026-05-07 12:29 | 42.63129 | -67.02045 | 35409 ft | 599 kts | 75° |
| 2026-05-07 12:29 | 42.64321 | -66.96630 | 35511 ft | 598 kts | 69° |
| 2026-05-07 12:29 | 42.65659 | -66.91295 | 35643 ft | 598 kts | 67° |
| 2026-05-07 12:30 | 42.67049 | -66.85988 | 35785 ft | 597 kts | 66° |
| 2026-05-07 12:30 | 42.68449 | -66.80758 | 35895 ft | 597 kts | 65° |
| 2026-05-07 12:30 | 42.69878 | -66.75458 | 36002 ft | 598 kts | 65° |
| 2026-05-07 12:30 | 42.71299 | -66.70175 | 36292 ft | 593 kts | 65° |
| 2026-05-07 12:31 | 42.72695 | -66.64944 | 36700 ft | 587 kts | 65° |
| 2026-05-07 12:31 | 42.74071 | -66.59753 | 36829 ft | 581 kts | 65° |
| 2026-05-07 12:31 | 42.75427 | -66.54611 | 36804 ft | 576 kts | 65° |
| 2026-05-07 12:32 | 42.78119 | -66.44373 | 36805 ft | 575 kts | 66° |
| 2026-05-07 12:32 | 42.80785 | -66.34198 | 36802 ft | 576 kts | 66° |
| 2026-05-07 12:33 | 42.84777 | -66.18862 | 36829 ft | 572 kts | 66° |
| 2026-05-07 12:33 | 42.87418 | -66.08669 | 36807 ft | 572 kts | 66° |
| 2026-05-07 12:34 | 42.90037 | -65.98516 | 36804 ft | 573 kts | 66° |
| 2026-05-07 12:34 | 42.92680 | -65.88234 | 36807 ft | 578 kts | 66° |
| 2026-05-07 12:35 | 42.95313 | -65.77929 | 36817 ft | 573 kts | 66° |
| 2026-05-07 12:35 | 42.97908 | -65.67716 | 36806 ft | 568 kts | 66° |
| 2026-05-07 12:36 | 43.00467 | -65.57624 | 36810 ft | 568 kts | 66° |
| 2026-05-07 12:36 | 43.03036 | -65.47450 | 36810 ft | 568 kts | 66° |
| 2026-05-07 12:37 | 43.05600 | -65.37250 | 36825 ft | 568 kts | 67° |
| 2026-05-07 12:37 | 43.08156 | -65.27031 | 36807 ft | 568 kts | 66° |
| 2026-05-07 12:38 | 43.10685 | -65.16877 | 36813 ft | 567 kts | 66° |
| 2026-05-07 12:38 | 43.13220 | -65.06656 | 36813 ft | 567 kts | 67° |
| 2026-05-07 12:39 | 43.15746 | -64.96426 | 36834 ft | 567 kts | 67° |
| 2026-05-07 12:39 | 43.18262 | -64.86187 | 36824 ft | 567 kts | 67° |
| 2026-05-07 12:40 | 43.20751 | -64.76015 | 36823 ft | 566 kts | 67° |
| 2026-05-07 12:40 | 43.23236 | -64.65806 | 36829 ft | 563 kts | 67° |
| 2026-05-07 12:41 | 43.25707 | -64.55618 | 36846 ft | 563 kts | 67° |
| 2026-05-07 12:41 | 43.28169 | -64.45424 | 36837 ft | 562 kts | 67° |
| 2026-05-07 12:42 | 43.30599 | -64.35315 | 36843 ft | 562 kts | 67° |
| 2026-05-07 12:42 | 43.33038 | -64.25125 | 36842 ft | 561 kts | 68° |
| 2026-05-07 12:43 | 43.35459 | -64.14957 | 36874 ft | 559 kts | 68° |
| 2026-05-07 12:43 | 43.37848 | -64.04883 | 36842 ft | 557 kts | 68° |
| 2026-05-07 12:44 | 43.40240 | -63.94753 | 36851 ft | 557 kts | 68° |
| 2026-05-07 12:44 | 43.42623 | -63.84615 | 36850 ft | 557 kts | 68° |
| 2026-05-07 12:45 | 43.44997 | -63.74468 | 36823 ft | 557 kts | 68° |
| 2026-05-07 12:45 | 43.47356 | -63.64332 | 36872 ft | 555 kts | 68° |
| 2026-05-07 12:46 | 43.49686 | -63.54282 | 36872 ft | 554 kts | 68° |
| 2026-05-07 12:46 | 43.52019 | -63.44174 | 36856 ft | 554 kts | 68° |
| 2026-05-07 12:47 | 43.54345 | -63.34047 | 36868 ft | 554 kts | 68° |
| 2026-05-07 12:47 | 43.56665 | -63.23901 | 36872 ft | 554 kts | 69° |
| 2026-05-07 12:48 | 43.58957 | -63.13828 | 36871 ft | 555 kts | 69° |
| 2026-05-07 12:48 | 43.61256 | -63.03677 | 36879 ft | 554 kts | 69° |
| 2026-05-07 12:49 | 43.63547 | -62.93517 | 36877 ft | 554 kts | 69° |
| 2026-05-07 12:49 | 43.65829 | -62.83347 | 36890 ft | 554 kts | 69° |
| 2026-05-07 12:50 | 43.68086 | -62.73242 | 36892 ft | 554 kts | 69° |
| 2026-05-07 12:50 | 43.70350 | -62.63062 | 36902 ft | 555 kts | 69° |
| 2026-05-07 12:51 | 43.72607 | -62.52860 | 36899 ft | 555 kts | 70° |
| 2026-05-07 12:51 | 43.74856 | -62.42646 | 36918 ft | 555 kts | 70° |
| 2026-05-07 12:52 | 43.77081 | -62.32489 | 36912 ft | 555 kts | 70° |
| 2026-05-07 12:52 | 43.79312 | -62.22259 | 36921 ft | 555 kts | 70° |
| 2026-05-07 12:53 | 43.81534 | -62.12021 | 36923 ft | 555 kts | 70° |
| 2026-05-07 12:53 | 43.83746 | -62.01778 | 36936 ft | 555 kts | 70° |
| 2026-05-07 12:54 | 43.85930 | -61.91618 | 36935 ft | 554 kts | 70° |
| 2026-05-07 12:54 | 43.88117 | -61.81391 | 36946 ft | 553 kts | 70° |
| 2026-05-07 12:55 | 43.90296 | -61.71156 | 36942 ft | 554 kts | 70° |
| 2026-05-07 12:55 | 43.92466 | -61.60911 | 36940 ft | 554 kts | 70° |
| 2026-05-07 12:56 | 43.94610 | -61.50733 | 36953 ft | 552 kts | 70° |
| 2026-05-07 12:56 | 43.96751 | -61.40519 | 36962 ft | 551 kts | 70° |
| 2026-05-07 12:57 | 43.98883 | -61.30304 | 36965 ft | 551 kts | 70° |
| 2026-05-07 12:57 | 44.01006 | -61.20079 | 36972 ft | 551 kts | 70° |
| 2026-05-07 12:58 | 44.03105 | -61.09918 | 36974 ft | 549 kts | 70° |
| 2026-05-07 12:58 | 44.05195 | -60.99744 | 36968 ft | 546 kts | 70° |
| 2026-05-07 12:59 | 44.07272 | -60.89591 | 36984 ft | 546 kts | 70° |
| 2026-05-07 12:59 | 44.09340 | -60.79432 | 36983 ft | 546 kts | 71° |
| 2026-05-07 13:00 | 44.11397 | -60.69273 | 36998 ft | 546 kts | 71° |
| 2026-05-07 13:00 | 44.13428 | -60.59189 | 36998 ft | 544 kts | 71° |
| 2026-05-07 13:01 | 44.15457 | -60.49060 | 36992 ft | 542 kts | 71° |
| 2026-05-07 13:01 | 44.17470 | -60.38966 | 37001 ft | 540 kts | 71° |
| 2026-05-07 13:02 | 44.19133 | -60.30585 | 37007 ft | 540 kts | 71° |
| 2026-05-07 13:02 | 44.21445 | -60.18876 | 37015 ft | 538 kts | 71° |
| 2026-05-07 13:03 | 44.23087 | -60.10519 | 37020 ft | 537 kts | 71° |
| 2026-05-07 13:03 | 44.25051 | -60.00477 | 37022 ft | 537 kts | 71° |
| 2026-05-07 13:04 | 44.27007 | -59.90422 | 37026 ft | 537 kts | 71° |
| 2026-05-07 13:04 | 44.29265 | -59.78750 | 37025 ft | 535 kts | 71° |
| 2026-05-07 13:05 | 44.30865 | -59.70428 | 37034 ft | 533 kts | 71° |
| 2026-05-07 13:05 | 44.32780 | -59.60432 | 37040 ft | 533 kts | 72° |
| 2026-05-07 13:06 | 44.34686 | -59.50429 | 37044 ft | 533 kts | 72° |
| 2026-05-07 13:06 | 44.36583 | -59.40420 | 37044 ft | 533 kts | 71° |
| 2026-05-07 13:07 | 44.38453 | -59.30503 | 37049 ft | 528 kts | 72° |
| 2026-05-07 13:07 | 44.40309 | -59.20597 | 37055 ft | 526 kts | 72° |
| 2026-05-07 13:08 | 44.42158 | -59.10696 | 37059 ft | 526 kts | 72° |
| 2026-05-07 13:08 | 44.43997 | -59.00786 | 37062 ft | 526 kts | 72° |
| 2026-05-07 13:09 | 44.45828 | -58.90868 | 37067 ft | 526 kts | 72° |
| 2026-05-07 13:09 | 44.47637 | -58.81021 | 37068 ft | 525 kts | 72° |
| 2026-05-07 13:10 | 44.49443 | -58.71130 | 37077 ft | 524 kts | 72° |
| 2026-05-07 13:10 | 44.51239 | -58.61245 | 37078 ft | 524 kts | 72° |
| 2026-05-07 13:11 | 44.53027 | -58.51351 | 37085 ft | 524 kts | 72° |
| 2026-05-07 13:11 | 44.54792 | -58.41528 | 37080 ft | 522 kts | 73° |
| 2026-05-07 13:12 | 44.56555 | -58.31667 | 37086 ft | 521 kts | 73° |
| 2026-05-07 13:12 | 44.58307 | -58.21814 | 37088 ft | 520 kts | 73° |
| 2026-05-07 13:13 | 44.60045 | -58.11984 | 37094 ft | 519 kts | 73° |
| 2026-05-07 13:13 | 44.61774 | -58.02155 | 37094 ft | 519 kts | 73° |
| 2026-05-07 13:14 | 44.63478 | -57.92411 | 37090 ft | 516 kts | 73° |
| 2026-05-07 13:14 | 44.65179 | -57.82632 | 37096 ft | 515 kts | 73° |
| 2026-05-07 13:15 | 44.66872 | -57.72846 | 37102 ft | 516 kts | 73° |
| 2026-05-07 13:15 | 44.68558 | -57.63053 | 37102 ft | 516 kts | 74° |
| 2026-05-07 13:16 | 44.70222 | -57.53328 | 37103 ft | 514 kts | 74° |
| 2026-05-07 13:16 | 44.71880 | -57.43580 | 37102 ft | 512 kts | 74° |
| 2026-05-07 13:17 | 44.73526 | -57.33852 | 37110 ft | 511 kts | 75° |
| 2026-05-07 13:17 | 44.75164 | -57.24117 | 37110 ft | 512 kts | 75° |
| 2026-05-07 13:18 | 44.76784 | -57.14436 | 37110 ft | 511 kts | 75° |
| 2026-05-07 13:18 | 44.78392 | -57.04769 | 37114 ft | 502 kts | 75° |
| 2026-05-07 13:19 | 44.79967 | -56.95244 | 37120 ft | 498 kts | 75° |
| 2026-05-07 13:19 | 44.81532 | -56.85735 | 37123 ft | 499 kts | 75° |
| 2026-05-07 13:20 | 44.83079 | -56.76281 | 37123 ft | 499 kts | 75° |
| 2026-05-07 13:20 | 44.84632 | -56.66739 | 37137 ft | 499 kts | 76° |
| 2026-05-07 13:21 | 44.86170 | -56.57230 | 37112 ft | 496 kts | 76° |
| 2026-05-07 13:21 | 44.87690 | -56.47779 | 37134 ft | 493 kts | 77° |
| 2026-05-07 13:22 | 44.89188 | -56.38419 | 37132 ft | 492 kts | 77° |
| 2026-05-07 13:22 | 44.90687 | -56.28993 | 37138 ft | 493 kts | 77° |
| 2026-05-07 13:23 | 44.92179 | -56.19559 | 37145 ft | 493 kts | 77° |
| 2026-05-07 13:23 | 44.93660 | -56.10154 | 37142 ft | 489 kts | 78° |
| 2026-05-07 13:24 | 44.95111 | -56.00864 | 37112 ft | 487 kts | 78° |
| 2026-05-07 13:24 | 44.96562 | -55.91531 | 37148 ft | 486 kts | 78° |
| 2026-05-07 13:25 | 44.98002 | -55.82217 | 37149 ft | 485 kts | 78° |
| 2026-05-07 13:25 | 44.99433 | -55.72902 | 37164 ft | 485 kts | 78° |
| 2026-05-07 13:26 | 45.00846 | -55.63664 | 37153 ft | 484 kts | 79° |
| 2026-05-07 13:26 | 45.02258 | -55.54365 | 37159 ft | 483 kts | 79° |
| 2026-05-07 13:27 | 45.03662 | -55.45070 | 37159 ft | 483 kts | 79° |
| 2026-05-07 13:27 | 45.05056 | -55.35780 | 37158 ft | 482 kts | 79° |
| 2026-05-07 13:28 | 45.06432 | -55.26565 | 37177 ft | 482 kts | 79° |
| 2026-05-07 13:28 | 45.07805 | -55.17312 | 37170 ft | 480 kts | 80° |
| 2026-05-07 13:29 | 45.09171 | -55.08054 | 37173 ft | 480 kts | 80° |
| 2026-05-07 13:29 | 45.10527 | -54.98804 | 37176 ft | 480 kts | 80° |
| 2026-05-07 13:30 | 45.11872 | -54.89543 | 37177 ft | 480 kts | 79° |
| 2026-05-07 13:30 | 45.13202 | -54.80326 | 37182 ft | 481 kts | 80° |
| 2026-05-07 13:31 | 45.14533 | -54.71061 | 37190 ft | 482 kts | 80° |
| 2026-05-07 13:31 | 45.15871 | -54.61703 | 37190 ft | 488 kts | 80° |
| 2026-05-07 13:32 | 45.17219 | -54.52225 | 37200 ft | 493 kts | 81° |
| 2026-05-07 13:32 | 45.18566 | -54.42697 | 37197 ft | 499 kts | 81° |
| 2026-05-07 13:33 | 45.19928 | -54.32998 | 37204 ft | 504 kts | 81° |
| 2026-05-07 13:33 | 45.21291 | -54.23270 | 37185 ft | 502 kts | 80° |
| 2026-05-07 13:34 | 45.23304 | -54.08796 | 37213 ft | 500 kts | 80° |
| 2026-05-07 13:35 | 45.24634 | -53.99117 | 37216 ft | 500 kts | 80° |
| 2026-05-07 13:35 | 45.25954 | -53.89431 | 37210 ft | 500 kts | 80° |
| 2026-05-07 13:36 | 45.27267 | -53.79732 | 37224 ft | 500 kts | 80° |
| 2026-05-07 13:36 | 45.28570 | -53.70047 | 37215 ft | 499 kts | 81° |
| 2026-05-07 13:37 | 45.29855 | -53.60431 | 37223 ft | 499 kts | 80° |
| 2026-05-07 13:37 | 45.31138 | -53.50760 | 37227 ft | 498 kts | 80° |
| 2026-05-07 13:38 | 45.32414 | -53.41085 | 37239 ft | 498 kts | 80° |
| 2026-05-07 13:38 | 45.33679 | -53.31420 | 37239 ft | 497 kts | 80° |
| 2026-05-07 13:39 | 45.34927 | -53.21820 | 37244 ft | 496 kts | 80° |
| 2026-05-07 13:39 | 45.36174 | -53.12167 | 37243 ft | 497 kts | 80° |
| 2026-05-07 13:40 | 45.37408 | -53.02507 | 37236 ft | 495 kts | 80° |
| 2026-05-07 13:40 | 45.38635 | -52.92880 | 37254 ft | 494 kts | 80° |
| 2026-05-07 13:41 | 45.39846 | -52.83320 | 37259 ft | 494 kts | 80° |
| 2026-05-07 13:41 | 45.41052 | -52.73720 | 37257 ft | 493 kts | 80° |
| 2026-05-07 13:42 | 45.42247 | -52.64130 | 37267 ft | 493 kts | 80° |
| 2026-05-07 13:42 | 45.43438 | -52.54508 | 37267 ft | 493 kts | 80° |
| 2026-05-07 13:43 | 45.44619 | -52.44897 | 37275 ft | 493 kts | 80° |
| 2026-05-07 13:43 | 45.45780 | -52.35377 | 37279 ft | 490 kts | 79° |
| 2026-05-07 13:44 | 45.46935 | -52.25840 | 37282 ft | 488 kts | 80° |
| 2026-05-07 13:44 | 45.48080 | -52.16313 | 37282 ft | 488 kts | 80° |
| 2026-05-07 13:45 | 45.49218 | -52.06784 | 37285 ft | 488 kts | 80° |
| 2026-05-07 13:45 | 45.50751 | -51.97456 | 37287 ft | 487 kts | 70° |
| 2026-05-07 13:46 | 45.53012 | -51.88361 | 37294 ft | 486 kts | 69° |
| 2026-05-07 13:46 | 45.55367 | -51.79332 | 37293 ft | 486 kts | 68° |
| 2026-05-07 13:47 | 45.57724 | -51.70294 | 37295 ft | 486 kts | 69° |
| 2026-05-07 13:47 | 45.60043 | -51.61306 | 37302 ft | 486 kts | 69° |
| 2026-05-07 13:48 | 45.62364 | -51.52251 | 37304 ft | 485 kts | 69° |
| 2026-05-07 13:48 | 45.64674 | -51.43197 | 37306 ft | 485 kts | 69° |
| 2026-05-07 13:49 | 45.66975 | -51.34144 | 37304 ft | 485 kts | 69° |
| 2026-05-07 13:49 | 45.69255 | -51.25137 | 37308 ft | 485 kts | 69° |
| 2026-05-07 13:50 | 45.71544 | -51.16064 | 37321 ft | 485 kts | 69° |
| 2026-05-07 13:50 | 45.73822 | -51.06997 | 37311 ft | 484 kts | 69° |
| 2026-05-07 13:51 | 45.76090 | -50.97933 | 37314 ft | 484 kts | 69° |
| 2026-05-07 13:51 | 45.78337 | -50.88916 | 37320 ft | 484 kts | 69° |
| 2026-05-07 13:52 | 45.80593 | -50.79830 | 37325 ft | 485 kts | 69° |
| 2026-05-07 13:52 | 45.82845 | -50.70724 | 37321 ft | 483 kts | 69° |
| 2026-05-07 13:53 | 45.85081 | -50.61645 | 37324 ft | 483 kts | 70° |
| 2026-05-07 13:53 | 45.87292 | -50.52629 | 37330 ft | 483 kts | 70° |
| 2026-05-07 13:54 | 45.89513 | -50.43538 | 37330 ft | 483 kts | 70° |
| 2026-05-07 13:54 | 45.91725 | -50.34446 | 37333 ft | 482 kts | 70° |
| 2026-05-07 13:55 | 45.93923 | -50.25375 | 37336 ft | 480 kts | 70° |
| 2026-05-07 13:55 | 45.96099 | -50.16362 | 37334 ft | 480 kts | 70° |
| 2026-05-07 13:56 | 45.98281 | -50.07283 | 37340 ft | 480 kts | 70° |
| 2026-05-07 13:56 | 46.00460 | -49.98189 | 37340 ft | 481 kts | 70° |
| 2026-05-07 13:57 | 46.02718 | -49.89125 | 37344 ft | 481 kts | 69° |
| 2026-05-07 13:57 | 46.05000 | -49.80134 | 37349 ft | 481 kts | 69° |
| 2026-05-07 13:58 | 46.07278 | -49.71073 | 37349 ft | 481 kts | 69° |
| 2026-05-07 13:58 | 46.09538 | -49.61999 | 37355 ft | 481 kts | 69° |
| 2026-05-07 13:59 | 46.11766 | -49.53001 | 37353 ft | 479 kts | 69° |
| 2026-05-07 13:59 | 46.13998 | -49.43950 | 37352 ft | 479 kts | 69° |
| 2026-05-07 14:00 | 46.16224 | -49.34891 | 37349 ft | 479 kts | 70° |
| 2026-05-07 14:00 | 46.18443 | -49.25824 | 37360 ft | 479 kts | 70° |
| 2026-05-07 14:01 | 46.20652 | -49.16757 | 37354 ft | 478 kts | 69° |
| 2026-05-07 14:01 | 46.22833 | -49.07774 | 37354 ft | 477 kts | 70° |
| 2026-05-07 14:02 | 46.25022 | -48.98723 | 37363 ft | 477 kts | 70° |
| 2026-05-07 14:02 | 46.27205 | -48.89654 | 37357 ft | 477 kts | 70° |
| 2026-05-07 14:03 | 46.29377 | -48.80597 | 37371 ft | 477 kts | 69° |
| 2026-05-07 14:03 | 46.31522 | -48.71617 | 37365 ft | 475 kts | 70° |
| 2026-05-07 14:04 | 46.33669 | -48.62592 | 37363 ft | 474 kts | 70° |
| 2026-05-07 14:04 | 46.35809 | -48.53557 | 37368 ft | 475 kts | 70° |
| 2026-05-07 14:05 | 46.37942 | -48.44516 | 37385 ft | 475 kts | 69° |
| 2026-05-07 14:05 | 46.40047 | -48.35556 | 37370 ft | 471 kts | 69° |
| 2026-05-07 14:06 | 46.42147 | -48.26582 | 37367 ft | 470 kts | 69° |
| 2026-05-07 14:06 | 46.44242 | -48.17593 | 37371 ft | 471 kts | 69° |
| 2026-05-07 14:07 | 46.46334 | -48.08581 | 37370 ft | 472 kts | 69° |
| 2026-05-07 14:07 | 46.48401 | -47.99636 | 37371 ft | 470 kts | 69° |
| 2026-05-07 14:08 | 46.50465 | -47.90665 | 37369 ft | 468 kts | 69° |
| 2026-05-07 14:08 | 46.52522 | -47.81692 | 37374 ft | 468 kts | 69° |
| 2026-05-07 14:09 | 46.54571 | -47.72718 | 37373 ft | 468 kts | 69° |
| 2026-05-07 14:09 | 46.56597 | -47.63801 | 37378 ft | 468 kts | 69° |
| 2026-05-07 14:10 | 46.58626 | -47.54836 | 37376 ft | 466 kts | 69° |
| 2026-05-07 14:10 | 46.60644 | -47.45882 | 37376 ft | 466 kts | 69° |
| 2026-05-07 14:11 | 46.62655 | -47.36922 | 37373 ft | 466 kts | 69° |
| 2026-05-07 14:11 | 46.64648 | -47.28008 | 37374 ft | 467 kts | 69° |
| 2026-05-07 14:12 | 46.66647 | -47.19025 | 37380 ft | 466 kts | 69° |
| 2026-05-07 14:12 | 46.68635 | -47.10058 | 37376 ft | 465 kts | 69° |
| 2026-05-07 14:13 | 46.70614 | -47.01088 | 37375 ft | 465 kts | 69° |
| 2026-05-07 14:13 | 46.72572 | -46.92178 | 37376 ft | 465 kts | 69° |
| 2026-05-07 14:14 | 46.74538 | -46.83196 | 37385 ft | 465 kts | 69° |
| 2026-05-07 14:14 | 46.76490 | -46.74229 | 37373 ft | 463 kts | 69° |
| 2026-05-07 14:15 | 46.78433 | -46.65269 | 37371 ft | 463 kts | 69° |
| 2026-05-07 14:15 | 46.80358 | -46.56359 | 37375 ft | 463 kts | 70° |
| 2026-05-07 14:16 | 46.82288 | -46.47387 | 37375 ft | 463 kts | 70° |
| 2026-05-07 14:16 | 46.84209 | -46.38413 | 37377 ft | 462 kts | 70° |
| 2026-05-07 14:17 | 46.86123 | -46.29435 | 37372 ft | 463 kts | 70° |
| 2026-05-07 14:17 | 46.88032 | -46.20440 | 37371 ft | 463 kts | 70° |
| 2026-05-07 14:18 | 46.89920 | -46.11503 | 37370 ft | 463 kts | 70° |
| 2026-05-07 14:18 | 46.91816 | -46.02494 | 37371 ft | 464 kts | 70° |
| 2026-05-07 14:19 | 46.93706 | -45.93468 | 37367 ft | 464 kts | 70° |
| 2026-05-07 14:19 | 46.95586 | -45.84455 | 37368 ft | 464 kts | 70° |
| 2026-05-07 14:20 | 46.97448 | -45.75482 | 37368 ft | 464 kts | 70° |
| 2026-05-07 14:20 | 46.99315 | -45.66448 | 37368 ft | 463 kts | 70° |
| 2026-05-07 14:21 | 47.01173 | -45.57413 | 37365 ft | 462 kts | 70° |
| 2026-05-07 14:21 | 47.03019 | -45.48397 | 37365 ft | 462 kts | 70° |
| 2026-05-07 14:22 | 47.04846 | -45.39441 | 37360 ft | 463 kts | 71° |
| 2026-05-07 14:22 | 47.06686 | -45.30381 | 37360 ft | 464 kts | 71° |
| 2026-05-07 14:23 | 47.08520 | -45.21302 | 37373 ft | 464 kts | 71° |
| 2026-05-07 14:23 | 47.10344 | -45.12227 | 37359 ft | 463 kts | 71° |
| 2026-05-07 14:24 | 47.12148 | -45.03214 | 37359 ft | 463 kts | 71° |
| 2026-05-07 14:24 | 47.13957 | -44.94139 | 37361 ft | 463 kts | 71° |
| 2026-05-07 14:25 | 47.15756 | -44.85068 | 37360 ft | 463 kts | 71° |
| 2026-05-07 14:25 | 47.17549 | -44.75984 | 37364 ft | 462 kts | 71° |
| 2026-05-07 14:26 | 47.19328 | -44.66929 | 37367 ft | 460 kts | 71° |
| 2026-05-07 14:26 | 47.21083 | -44.57952 | 37351 ft | 460 kts | 71° |
| 2026-05-07 14:27 | 47.22844 | -44.48906 | 37341 ft | 460 kts | 71° |
| 2026-05-07 14:27 | 47.24601 | -44.39840 | 37368 ft | 462 kts | 72° |
| 2026-05-07 14:28 | 47.26341 | -44.30814 | 37353 ft | 461 kts | 72° |
| 2026-05-07 14:28 | 47.28083 | -44.21736 | 37347 ft | 460 kts | 72° |
| 2026-05-07 14:29 | 47.29815 | -44.12669 | 37342 ft | 460 kts | 72° |
| 2026-05-07 14:29 | 47.31538 | -44.03605 | 37346 ft | 460 kts | 72° |
| 2026-05-07 14:30 | 47.33245 | -43.94583 | 37356 ft | 460 kts | 72° |
| 2026-05-07 14:30 | 47.34950 | -43.85520 | 37343 ft | 458 kts | 72° |
| 2026-05-07 14:31 | 47.36646 | -43.76471 | 37341 ft | 458 kts | 72° |
| 2026-05-07 14:31 | 47.38334 | -43.67417 | 37339 ft | 458 kts | 72° |
| 2026-05-07 14:32 | 47.40004 | -43.58414 | 37334 ft | 458 kts | 72° |
| 2026-05-07 14:32 | 47.41678 | -43.49353 | 37344 ft | 457 kts | 72° |
| 2026-05-07 14:33 | 47.43341 | -43.40297 | 37332 ft | 458 kts | 72° |
| 2026-05-07 14:33 | 47.45003 | -43.31209 | 37333 ft | 459 kts | 72° |
| 2026-05-07 14:34 | 47.46659 | -43.22109 | 37332 ft | 459 kts | 72° |
| 2026-05-07 14:34 | 47.48295 | -43.13070 | 37334 ft | 459 kts | 72° |
| 2026-05-07 14:35 | 47.49934 | -43.03967 | 37332 ft | 458 kts | 73° |
| 2026-05-07 14:35 | 47.51563 | -42.94877 | 37333 ft | 457 kts | 73° |
| 2026-05-07 14:36 | 47.53185 | -42.85782 | 37333 ft | 457 kts | 73° |
| 2026-05-07 14:36 | 47.54789 | -42.76741 | 37324 ft | 457 kts | 73° |
| 2026-05-07 14:37 | 47.56396 | -42.67636 | 37327 ft | 457 kts | 73° |
| 2026-05-07 14:37 | 47.58793 | -42.53971 | 37324 ft | 457 kts | 73° |
| 2026-05-07 14:38 | 47.60383 | -42.44849 | 37318 ft | 457 kts | 73° |
| 2026-05-07 14:38 | 47.61955 | -42.35782 | 37319 ft | 457 kts | 73° |
| 2026-05-07 14:39 | 47.63530 | -42.26652 | 37318 ft | 457 kts | 73° |
| 2026-05-07 14:39 | 47.65098 | -42.17515 | 37321 ft | 457 kts | 73° |
| 2026-05-07 14:40 | 47.66658 | -42.08375 | 37313 ft | 457 kts | 73° |
| 2026-05-07 14:40 | 47.68199 | -41.99296 | 37313 ft | 457 kts | 73° |
| 2026-05-07 14:41 | 47.69745 | -41.90145 | 37315 ft | 457 kts | 73° |
| 2026-05-07 14:41 | 47.71283 | -41.80992 | 37314 ft | 457 kts | 73° |
| 2026-05-07 14:42 | 47.72814 | -41.71831 | 37311 ft | 457 kts | 73° |
| 2026-05-07 14:42 | 47.74328 | -41.62721 | 37311 ft | 457 kts | 73° |
| 2026-05-07 14:43 | 47.75845 | -41.53548 | 37313 ft | 457 kts | 74° |
| 2026-05-07 14:43 | 47.77354 | -41.44370 | 37309 ft | 457 kts | 74° |
| 2026-05-07 14:44 | 47.78857 | -41.35180 | 37307 ft | 458 kts | 73° |
| 2026-05-07 14:44 | 47.80353 | -41.25980 | 37305 ft | 458 kts | 73° |
| 2026-05-07 14:45 | 47.81832 | -41.16839 | 37306 ft | 458 kts | 73° |
| 2026-05-07 14:45 | 47.83314 | -41.07626 | 37308 ft | 458 kts | 73° |
| 2026-05-07 14:46 | 47.84789 | -40.98407 | 37305 ft | 458 kts | 74° |
| 2026-05-07 14:46 | 47.86255 | -40.89190 | 37305 ft | 457 kts | 73° |
| 2026-05-07 14:47 | 47.87701 | -40.80052 | 37304 ft | 456 kts | 73° |
| 2026-05-07 14:47 | 47.89148 | -40.70854 | 37304 ft | 456 kts | 73° |
| 2026-05-07 14:48 | 47.90588 | -40.61650 | 37304 ft | 456 kts | 73° |
| 2026-05-07 14:48 | 47.92021 | -40.52443 | 37304 ft | 456 kts | 74° |
| 2026-05-07 14:49 | 47.93443 | -40.43247 | 37313 ft | 454 kts | 73° |
| 2026-05-07 14:49 | 47.94845 | -40.34130 | 37299 ft | 454 kts | 73° |
| 2026-05-07 14:50 | 47.96250 | -40.24939 | 37300 ft | 454 kts | 73° |
| 2026-05-07 14:50 | 47.97648 | -40.15744 | 37296 ft | 454 kts | 73° |
| 2026-05-07 14:51 | 47.99039 | -40.06544 | 37310 ft | 454 kts | 73° |
| 2026-05-07 14:51 | 48.00408 | -39.97425 | 37302 ft | 453 kts | 73° |
| 2026-05-07 14:52 | 48.01748 | -39.88242 | 37301 ft | 452 kts | 73° |
| 2026-05-07 14:52 | 48.03066 | -39.79052 | 37301 ft | 452 kts | 73° |
| 2026-05-07 14:53 | 48.04382 | -39.69856 | 37302 ft | 452 kts | 73° |
| 2026-05-07 14:53 | 48.05684 | -39.60720 | 37307 ft | 452 kts | 73° |
| 2026-05-07 14:54 | 48.06684 | -39.53675 | 37301 ft | 452 kts | 73° |
| 2026-05-07 14:54 | 48.40620 | -37.83341 | 37435 ft | 448 kts | 69° |
| 2026-05-07 14:54 | 48.41256 | -37.78733 | 37557 ft | 459 kts | 81° |
| 2026-05-07 14:55 | 48.41040 | -37.73865 | 37343 ft | 474 kts | 96° |
| 2026-05-07 14:55 | 48.40436 | -37.69022 | 37267 ft | 465 kts | 86° |
| 2026-05-07 14:55 | 48.40600 | -37.64241 | 37299 ft | 453 kts | 75° |
| 2026-05-07 14:55 | 48.41238 | -37.59102 | 37280 ft | 27883 kts | 72° |
| 2026-05-07 14:56 | 48.99615 | -34.79008 | 37414 ft | 27883 kts | 72° |
| 2026-05-07 14:56 | 49.39411 | -32.86169 | 37642 ft | 446 kts | 65° |
| 2026-05-07 14:56 | 49.40008 | -32.81443 | 37655 ft | 461 kts | 81° |
| 2026-05-07 14:56 | 49.40101 | -32.76452 | 37387 ft | 474 kts | 84° |
| 2026-05-07 14:57 | 49.39831 | -32.71340 | 37216 ft | 486 kts | 92° |
| 2026-05-07 14:57 | 49.39310 | -32.66203 | 37203 ft | 487 kts | 93° |
| 2026-05-07 14:57 | 49.38057 | -32.56054 | 37206 ft | 487 kts | 95° |
| 2026-05-07 14:58 | 49.36896 | -32.47573 | 37205 ft | 487 kts | 95° |
| 2026-05-07 14:58 | 49.35475 | -32.37400 | 37222 ft | 488 kts | 95° |
| 2026-05-07 14:59 | 49.34053 | -32.27211 | 37193 ft | 489 kts | 95° |
| 2026-05-07 14:59 | 49.32630 | -32.17019 | 37196 ft | 489 kts | 95° |
| 2026-05-07 15:00 | 49.31210 | -32.06910 | 37197 ft | 489 kts | 95° |
| 2026-05-07 15:00 | 49.29773 | -31.96741 | 37198 ft | 489 kts | 96° |
| 2026-05-07 15:01 | 49.28325 | -31.86568 | 37185 ft | 488 kts | 96° |
| 2026-05-07 15:01 | 49.26869 | -31.76409 | 37214 ft | 489 kts | 96° |
| 2026-05-07 15:02 | 49.25402 | -31.66239 | 37164 ft | 491 kts | 96° |
| 2026-05-07 15:02 | 49.23964 | -31.56335 | 37182 ft | 491 kts | 96° |
| 2026-05-07 15:03 | 49.22473 | -31.46143 | 37180 ft | 491 kts | 96° |
| 2026-05-07 15:03 | 49.20972 | -31.35948 | 37178 ft | 491 kts | 96° |
| 2026-05-07 15:04 | 49.19464 | -31.25765 | 37174 ft | 491 kts | 96° |
| 2026-05-07 15:04 | 49.17957 | -31.15660 | 37166 ft | 491 kts | 96° |
| 2026-05-07 15:05 | 49.16430 | -31.05480 | 37168 ft | 492 kts | 96° |
| 2026-05-07 15:05 | 49.14892 | -30.95286 | 37159 ft | 493 kts | 97° |
| 2026-05-07 15:06 | 49.13343 | -30.85094 | 37159 ft | 493 kts | 97° |
| 2026-05-07 15:06 | 49.11794 | -30.74969 | 37158 ft | 493 kts | 97° |
| 2026-05-07 15:07 | 49.10225 | -30.64785 | 37150 ft | 493 kts | 97° |
| 2026-05-07 15:07 | 49.08649 | -30.54608 | 37152 ft | 493 kts | 97° |
| 2026-05-07 15:08 | 49.07063 | -30.44435 | 37143 ft | 493 kts | 97° |
| 2026-05-07 15:08 | 49.05467 | -30.34265 | 37140 ft | 493 kts | 97° |
| 2026-05-07 15:09 | 49.03872 | -30.24161 | 37129 ft | 493 kts | 97° |
| 2026-05-07 15:09 | 49.02257 | -30.13999 | 37129 ft | 493 kts | 97° |
| 2026-05-07 15:10 | 49.00786 | -30.03819 | 37128 ft | 487 kts | 90° |
| 2026-05-07 15:10 | 49.00932 | -29.93729 | 37122 ft | 471 kts | 74° |
| 2026-05-07 15:11 | 49.02180 | -29.83989 | 37125 ft | 467 kts | 70° |
| 2026-05-07 15:11 | 49.03647 | -29.74421 | 37117 ft | 466 kts | 70° |
| 2026-05-07 15:12 | 49.05091 | -29.64790 | 37113 ft | 467 kts | 70° |
| 2026-05-07 15:12 | 49.06483 | -29.55118 | 37112 ft | 467 kts | 71° |
| 2026-05-07 15:13 | 49.07840 | -29.45490 | 37110 ft | 468 kts | 71° |
| 2026-05-07 15:13 | 49.09198 | -29.35785 | 37103 ft | 468 kts | 71° |
| 2026-05-07 15:14 | 49.10552 | -29.26064 | 37106 ft | 468 kts | 71° |
| 2026-05-07 15:14 | 49.11898 | -29.16339 | 37104 ft | 468 kts | 71° |
| 2026-05-07 15:15 | 49.13228 | -29.06670 | 37100 ft | 468 kts | 71° |
| 2026-05-07 15:15 | 49.14559 | -28.96929 | 37101 ft | 469 kts | 71° |
| 2026-05-07 15:16 | 49.15883 | -28.87172 | 37095 ft | 469 kts | 71° |
| 2026-05-07 15:16 | 49.17199 | -28.77405 | 37089 ft | 469 kts | 72° |
| 2026-05-07 15:17 | 49.18508 | -28.67630 | 37089 ft | 469 kts | 72° |
| 2026-05-07 15:17 | 49.19799 | -28.57920 | 37092 ft | 470 kts | 72° |
| 2026-05-07 15:18 | 49.21092 | -28.48133 | 37089 ft | 470 kts | 72° |
| 2026-05-07 15:18 | 49.22376 | -28.38337 | 37086 ft | 470 kts | 72° |
| 2026-05-07 15:19 | 49.23652 | -28.28535 | 37086 ft | 470 kts | 72° |
| 2026-05-07 15:19 | 49.24913 | -28.18789 | 37082 ft | 470 kts | 72° |
| 2026-05-07 15:20 | 49.26173 | -28.08976 | 37086 ft | 470 kts | 72° |
| 2026-05-07 15:20 | 49.27425 | -27.99159 | 37085 ft | 469 kts | 73° |
| 2026-05-07 15:21 | 49.28666 | -27.89348 | 37078 ft | 469 kts | 73° |
| 2026-05-07 15:21 | 49.29890 | -27.79609 | 37077 ft | 469 kts | 73° |
| 2026-05-07 15:22 | 49.31116 | -27.69790 | 37089 ft | 469 kts | 73° |
| 2026-05-07 15:22 | 49.32336 | -27.59945 | 37076 ft | 471 kts | 73° |
| 2026-05-07 15:23 | 49.33548 | -27.50080 | 37072 ft | 471 kts | 73° |
| 2026-05-07 15:23 | 49.34745 | -27.40269 | 37072 ft | 471 kts | 73° |
| 2026-05-07 15:24 | 49.35942 | -27.30390 | 37064 ft | 471 kts | 73° |
| 2026-05-07 15:24 | 49.37131 | -27.20499 | 37064 ft | 472 kts | 74° |
| 2026-05-07 15:25 | 49.38315 | -27.10578 | 37061 ft | 473 kts | 74° |
| 2026-05-07 15:25 | 49.39483 | -27.00717 | 37052 ft | 473 kts | 74° |
| 2026-05-07 15:26 | 49.40650 | -26.90777 | 37060 ft | 473 kts | 74° |
| 2026-05-07 15:26 | 49.41810 | -26.80828 | 37068 ft | 474 kts | 74° |
| 2026-05-07 15:27 | 49.42966 | -26.70842 | 37049 ft | 476 kts | 75° |
| 2026-05-07 15:27 | 49.44117 | -26.60813 | 37066 ft | 477 kts | 75° |
| 2026-05-07 15:28 | 49.45249 | -26.50858 | 37042 ft | 476 kts | 75° |
| 2026-05-07 15:28 | 49.46382 | -26.40825 | 37048 ft | 476 kts | 75° |
| 2026-05-07 15:29 | 49.47507 | -26.30775 | 37042 ft | 478 kts | 75° |
| 2026-05-07 15:29 | 49.48631 | -26.20674 | 37039 ft | 480 kts | 75° |
| 2026-05-07 15:30 | 49.49738 | -26.10618 | 37040 ft | 480 kts | 75° |
| 2026-05-07 15:30 | 49.50843 | -26.00493 | 37037 ft | 480 kts | 75° |
| 2026-05-07 15:31 | 49.51941 | -25.90362 | 37044 ft | 480 kts | 76° |
| 2026-05-07 15:31 | 49.53034 | -25.80195 | 37031 ft | 482 kts | 76° |
| 2026-05-07 15:32 | 49.54112 | -25.70072 | 37034 ft | 483 kts | 76° |
| 2026-05-07 15:32 | 49.55188 | -25.59867 | 37024 ft | 483 kts | 76° |
| 2026-05-07 15:33 | 49.56256 | -25.49658 | 37024 ft | 483 kts | 76° |
| 2026-05-07 15:33 | 49.57309 | -25.39497 | 37022 ft | 484 kts | 77° |
| 2026-05-07 15:34 | 49.58365 | -25.29236 | 37018 ft | 485 kts | 77° |
| 2026-05-07 15:34 | 49.59412 | -25.18959 | 37018 ft | 485 kts | 77° |
| 2026-05-07 15:35 | 49.60449 | -25.08678 | 37019 ft | 485 kts | 77° |
| 2026-05-07 15:35 | 49.61479 | -24.98386 | 37014 ft | 486 kts | 77° |
| 2026-05-07 15:36 | 49.62492 | -24.88149 | 37006 ft | 487 kts | 77° |
| 2026-05-07 15:36 | 49.63507 | -24.77808 | 37002 ft | 488 kts | 77° |
| 2026-05-07 15:37 | 49.64513 | -24.67461 | 36999 ft | 488 kts | 78° |
| 2026-05-07 15:37 | 49.65510 | -24.57109 | 37020 ft | 488 kts | 78° |
| 2026-05-07 15:38 | 49.66494 | -24.46803 | 36996 ft | 489 kts | 78° |
| 2026-05-07 15:38 | 49.67476 | -24.36401 | 36996 ft | 490 kts | 78° |
| 2026-05-07 15:39 | 49.68449 | -24.25994 | 36983 ft | 489 kts | 79° |
| 2026-05-07 15:39 | 49.69410 | -24.15606 | 36983 ft | 488 kts | 79° |
| 2026-05-07 15:40 | 49.70355 | -24.05290 | 36983 ft | 489 kts | 79° |
| 2026-05-07 15:40 | 49.71301 | -23.94865 | 36982 ft | 490 kts | 79° |
| 2026-05-07 15:41 | 49.72238 | -23.84425 | 36977 ft | 491 kts | 79° |
| 2026-05-07 15:41 | 49.73164 | -23.73993 | 36973 ft | 488 kts | 80° |
| 2026-05-07 15:42 | 49.74080 | -23.63581 | 36977 ft | 490 kts | 80° |
| 2026-05-07 15:42 | 49.74983 | -23.53206 | 36968 ft | 491 kts | 80° |
| 2026-05-07 15:43 | 49.75883 | -23.42744 | 36969 ft | 491 kts | 80° |
| 2026-05-07 15:43 | 49.76773 | -23.32280 | 36968 ft | 491 kts | 80° |
| 2026-05-07 15:44 | 49.77654 | -23.21812 | 36984 ft | 491 kts | 81° |
| 2026-05-07 15:44 | 49.78521 | -23.11395 | 36971 ft | 491 kts | 81° |
| 2026-05-07 15:45 | 49.79385 | -23.00898 | 36969 ft | 492 kts | 81° |
| 2026-05-07 15:45 | 49.80241 | -22.90392 | 36975 ft | 492 kts | 81° |
| 2026-05-07 15:46 | 49.81506 | -22.74629 | 36987 ft | 492 kts | 81° |
| 2026-05-07 15:47 | 49.82334 | -22.64161 | 36971 ft | 494 kts | 82° |
| 2026-05-07 15:47 | 49.83159 | -22.53591 | 36971 ft | 495 kts | 82° |
| 2026-05-07 15:48 | 49.83976 | -22.43010 | 36964 ft | 495 kts | 82° |
| 2026-05-07 15:48 | 49.84783 | -22.32438 | 36974 ft | 494 kts | 82° |
| 2026-05-07 15:49 | 49.85572 | -22.21954 | 36972 ft | 494 kts | 83° |
| 2026-05-07 15:49 | 49.86360 | -22.11370 | 36971 ft | 495 kts | 83° |
| 2026-05-07 15:50 | 49.87138 | -22.00775 | 36967 ft | 495 kts | 83° |
| 2026-05-07 15:50 | 49.87906 | -21.90177 | 36963 ft | 495 kts | 83° |
| 2026-05-07 15:51 | 49.88666 | -21.79575 | 36959 ft | 495 kts | 83° |
| 2026-05-07 15:51 | 49.89412 | -21.69013 | 36956 ft | 496 kts | 83° |
| 2026-05-07 15:52 | 49.90155 | -21.58367 | 36965 ft | 497 kts | 83° |
| 2026-05-07 15:52 | 49.90887 | -21.47715 | 36970 ft | 497 kts | 83° |
| 2026-05-07 15:53 | 49.91610 | -21.37057 | 36963 ft | 497 kts | 84° |
| 2026-05-07 15:53 | 49.92204 | -21.28196 | 36947 ft | 498 kts | 84° |
| 2026-05-07 15:54 | 49.93026 | -21.15754 | 36946 ft | 499 kts | 84° |
| 2026-05-07 15:54 | 49.93723 | -21.05039 | 36939 ft | 499 kts | 84° |
| 2026-05-07 15:55 | 49.94295 | -20.96130 | 36942 ft | 499 kts | 84° |
| 2026-05-07 15:55 | 49.94974 | -20.85406 | 36951 ft | 500 kts | 84° |
| 2026-05-07 15:56 | 49.95753 | -20.72914 | 36932 ft | 500 kts | 84° |
| 2026-05-07 15:56 | 49.96412 | -20.62156 | 36936 ft | 500 kts | 85° |
| 2026-05-07 15:57 | 49.96953 | -20.53211 | 36931 ft | 500 kts | 85° |
| 2026-05-07 15:57 | 49.97593 | -20.42457 | 36951 ft | 501 kts | 85° |
| 2026-05-07 15:58 | 49.98328 | -20.29920 | 36938 ft | 502 kts | 85° |
| 2026-05-07 15:58 | 49.98850 | -20.20858 | 36948 ft | 502 kts | 85° |
| 2026-05-07 15:59 | 49.99458 | -20.10129 | 36946 ft | 502 kts | 85° |
| 2026-05-07 15:59 | 50.00062 | -19.99320 | 36934 ft | 502 kts | 85° |
| 2026-05-07 16:00 | 50.00419 | -19.88483 | 36937 ft | 503 kts | 89° |
| 2026-05-07 16:00 | 50.00550 | -19.77611 | 36940 ft | 503 kts | 90° |
| 2026-05-07 16:01 | 50.00697 | -19.66799 | 36936 ft | 504 kts | 89° |
| 2026-05-07 16:01 | 50.00881 | -19.55922 | 36934 ft | 503 kts | 89° |
| 2026-05-07 16:02 | 50.01070 | -19.45056 | 36937 ft | 504 kts | 89° |
| 2026-05-07 16:02 | 50.01251 | -19.34145 | 36953 ft | 505 kts | 89° |
| 2026-05-07 16:03 | 50.01420 | -19.23243 | 36941 ft | 505 kts | 90° |
| 2026-05-07 16:03 | 50.01576 | -19.12398 | 36946 ft | 505 kts | 90° |
| 2026-05-07 16:04 | 50.01723 | -19.01486 | 36958 ft | 505 kts | 90° |
| 2026-05-07 16:04 | 50.01860 | -18.90572 | 36953 ft | 505 kts | 90° |
| 2026-05-07 16:05 | 50.01986 | -18.79734 | 36946 ft | 504 kts | 90° |
| 2026-05-07 16:05 | 50.02102 | -18.68844 | 36941 ft | 504 kts | 90° |
| 2026-05-07 16:06 | 50.02208 | -18.57957 | 36947 ft | 504 kts | 90° |
| 2026-05-07 16:06 | 50.02304 | -18.47064 | 36968 ft | 505 kts | 90° |
| 2026-05-07 16:07 | 50.02390 | -18.36146 | 36970 ft | 505 kts | 90° |
| 2026-05-07 16:07 | 50.02464 | -18.25306 | 36957 ft | 505 kts | 90° |
| 2026-05-07 16:08 | 50.02530 | -18.14397 | 36952 ft | 505 kts | 90° |
| 2026-05-07 16:08 | 50.02586 | -18.03480 | 36958 ft | 505 kts | 90° |
| 2026-05-07 16:09 | 50.02631 | -17.92607 | 36959 ft | 506 kts | 90° |
| 2026-05-07 16:09 | 50.02666 | -17.81652 | 36963 ft | 507 kts | 91° |
| 2026-05-07 16:10 | 50.02691 | -17.70696 | 36972 ft | 507 kts | 91° |
| 2026-05-07 16:10 | 50.02705 | -17.59753 | 36960 ft | 507 kts | 91° |
| 2026-05-07 16:11 | 50.02709 | -17.48856 | 36972 ft | 507 kts | 91° |
| 2026-05-07 16:11 | 50.02702 | -17.37890 | 36966 ft | 507 kts | 91° |
| 2026-05-07 16:12 | 50.02686 | -17.26925 | 36965 ft | 507 kts | 91° |
| 2026-05-07 16:12 | 50.02659 | -17.15968 | 36967 ft | 507 kts | 91° |
| 2026-05-07 16:13 | 50.02622 | -17.05082 | 36972 ft | 507 kts | 91° |
| 2026-05-07 16:13 | 50.02575 | -16.94129 | 36972 ft | 507 kts | 91° |
| 2026-05-07 16:14 | 50.02517 | -16.83162 | 36960 ft | 507 kts | 91° |
| 2026-05-07 16:14 | 50.02449 | -16.72195 | 36972 ft | 507 kts | 91° |
| 2026-05-07 16:15 | 50.02370 | -16.61219 | 36978 ft | 507 kts | 92° |
| 2026-05-07 16:15 | 50.02282 | -16.50328 | 36976 ft | 507 kts | 92° |
| 2026-05-07 16:16 | 50.02183 | -16.39357 | 36978 ft | 508 kts | 92° |
| 2026-05-07 16:16 | 50.02073 | -16.28387 | 36978 ft | 507 kts | 92° |
| 2026-05-07 16:17 | 50.01953 | -16.17418 | 36964 ft | 507 kts | 92° |
| 2026-05-07 16:17 | 50.01824 | -16.06517 | 36983 ft | 508 kts | 92° |
| 2026-05-07 16:18 | 50.01683 | -15.95543 | 36985 ft | 508 kts | 92° |
| 2026-05-07 16:18 | 50.01532 | -15.84566 | 36968 ft | 508 kts | 92° |
| 2026-05-07 16:19 | 50.01371 | -15.73596 | 36960 ft | 508 kts | 92° |
| 2026-05-07 16:19 | 50.01200 | -15.62625 | 36979 ft | 508 kts | 92° |
| 2026-05-07 16:20 | 50.01019 | -15.51722 | 36968 ft | 508 kts | 92° |
| 2026-05-07 16:20 | 50.00827 | -15.40752 | 36980 ft | 508 kts | 92° |
| 2026-05-07 16:21 | 50.00624 | -15.29784 | 36981 ft | 508 kts | 92° |
| 2026-05-07 16:21 | 50.00411 | -15.18818 | 36980 ft | 508 kts | 92° |
| 2026-05-07 16:22 | 50.00190 | -15.07932 | 36982 ft | 508 kts | 93° |
| 2026-05-07 16:22 | 49.99964 | -14.96965 | 36982 ft | 508 kts | 92° |
| 2026-05-07 16:23 | 49.99968 | -14.85988 | 36981 ft | 508 kts | 90° |
| 2026-05-07 16:23 | 50.00065 | -14.75009 | 36983 ft | 508 kts | 90° |
| 2026-05-07 16:24 | 50.00119 | -14.64098 | 36982 ft | 508 kts | 90° |
| 2026-05-07 16:24 | 50.00134 | -14.53118 | 36982 ft | 508 kts | 90° |
| 2026-05-07 16:25 | 50.00129 | -14.42138 | 36981 ft | 508 kts | 91° |
| 2026-05-07 16:25 | 50.00115 | -14.31157 | 36970 ft | 508 kts | 91° |
| 2026-05-07 16:26 | 50.00091 | -14.20256 | 36972 ft | 508 kts | 91° |
| 2026-05-07 16:26 | 50.00058 | -14.09273 | 36977 ft | 507 kts | 91° |
| 2026-05-07 16:27 | 50.00523 | -13.98354 | 36977 ft | 507 kts | 77° |
| 2026-05-07 16:27 | 50.02353 | -13.87789 | 36977 ft | 507 kts | 73° |
| 2026-05-07 16:28 | 50.04393 | -13.77358 | 36979 ft | 507 kts | 72° |
| 2026-05-07 16:28 | 50.06460 | -13.66872 | 36979 ft | 507 kts | 72° |
| 2026-05-07 16:29 | 50.08497 | -13.56373 | 36981 ft | 507 kts | 72° |
| 2026-05-07 16:29 | 50.10512 | -13.45851 | 36965 ft | 507 kts | 72° |
| 2026-05-07 16:30 | 50.12501 | -13.35388 | 36968 ft | 507 kts | 72° |
| 2026-05-07 16:30 | 50.14496 | -13.24842 | 36977 ft | 506 kts | 72° |
| 2026-05-07 16:31 | 50.16476 | -13.14320 | 36979 ft | 506 kts | 73° |
| 2026-05-07 16:31 | 50.18450 | -13.03771 | 36977 ft | 506 kts | 73° |
| 2026-05-07 16:32 | 50.20399 | -12.93301 | 36978 ft | 506 kts | 73° |
| 2026-05-07 16:32 | 50.22349 | -12.82760 | 36978 ft | 505 kts | 73° |
| 2026-05-07 16:33 | 50.24289 | -12.72211 | 36978 ft | 505 kts | 73° |
| 2026-05-07 16:33 | 50.26217 | -12.61676 | 36978 ft | 505 kts | 73° |
| 2026-05-07 16:34 | 50.28124 | -12.51187 | 36978 ft | 505 kts | 73° |
| 2026-05-07 16:34 | 50.30031 | -12.40642 | 36977 ft | 503 kts | 73° |
| 2026-05-07 16:35 | 50.31922 | -12.30123 | 36969 ft | 502 kts | 73° |
| 2026-05-07 16:35 | 50.33803 | -12.19599 | 36980 ft | 502 kts | 73° |
| 2026-05-07 16:36 | 50.35674 | -12.09066 | 36982 ft | 502 kts | 73° |
| 2026-05-07 16:36 | 50.37520 | -11.98615 | 36980 ft | 500 kts | 73° |
| 2026-05-07 16:37 | 50.39364 | -11.88113 | 36975 ft | 500 kts | 73° |
| 2026-05-07 16:37 | 50.41197 | -11.77613 | 36977 ft | 499 kts | 74° |
| 2026-05-07 16:38 | 50.43010 | -11.67168 | 36978 ft | 500 kts | 74° |
| 2026-05-07 16:38 | 50.44823 | -11.56655 | 36977 ft | 498 kts | 74° |
| 2026-05-07 16:39 | 50.46621 | -11.46170 | 36980 ft | 497 kts | 74° |
| 2026-05-07 16:39 | 50.48407 | -11.35694 | 36980 ft | 497 kts | 74° |
| 2026-05-07 16:40 | 50.50184 | -11.25210 | 36979 ft | 497 kts | 74° |
| 2026-05-07 16:40 | 50.51938 | -11.14794 | 36982 ft | 496 kts | 74° |
| 2026-05-07 16:41 | 50.53690 | -11.04325 | 36979 ft | 495 kts | 74° |
| 2026-05-07 16:41 | 50.55430 | -10.93865 | 36978 ft | 494 kts | 74° |
| 2026-05-07 16:42 | 50.57161 | -10.83397 | 36973 ft | 494 kts | 75° |
| 2026-05-07 16:42 | 50.58870 | -10.72997 | 36984 ft | 494 kts | 75° |
| 2026-05-07 16:43 | 50.60578 | -10.62540 | 36981 ft | 492 kts | 75° |
| 2026-05-07 16:43 | 50.62273 | -10.52098 | 36979 ft | 492 kts | 75° |
| 2026-05-07 16:44 | 50.63958 | -10.41651 | 36985 ft | 492 kts | 75° |
| 2026-05-07 16:44 | 50.65623 | -10.31260 | 36985 ft | 492 kts | 75° |
| 2026-05-07 16:45 | 50.67288 | -10.20811 | 36982 ft | 491 kts | 75° |
| 2026-05-07 16:45 | 50.68939 | -10.10380 | 36992 ft | 490 kts | 75° |
| 2026-05-07 16:46 | 50.70580 | -9.99945 | 36994 ft | 490 kts | 75° |
| 2026-05-07 16:46 | 50.72210 | -9.89516 | 36994 ft | 490 kts | 76° |
| 2026-05-07 16:47 | 50.73822 | -9.79132 | 36999 ft | 490 kts | 76° |
| 2026-05-07 16:47 | 50.75435 | -9.68678 | 36988 ft | 490 kts | 76° |
| 2026-05-07 16:48 | 50.77038 | -9.58219 | 36979 ft | 490 kts | 76° |
| 2026-05-07 16:48 | 50.78633 | -9.47750 | 36989 ft | 490 kts | 76° |
| 2026-05-07 16:49 | 50.80205 | -9.37356 | 36975 ft | 489 kts | 76° |
| 2026-05-07 16:49 | 50.81773 | -9.26926 | 36994 ft | 487 kts | 76° |
| 2026-05-07 16:50 | 50.83329 | -9.16500 | 36995 ft | 487 kts | 76° |
| 2026-05-07 16:50 | 50.84876 | -9.06068 | 36998 ft | 487 kts | 76° |
| 2026-05-07 16:51 | 50.86414 | -8.95630 | 37000 ft | 487 kts | 76° |
| 2026-05-07 16:51 | 50.87932 | -8.85261 | 36999 ft | 487 kts | 77° |
| 2026-05-07 16:52 | 50.89450 | -8.74816 | 36999 ft | 487 kts | 77° |
| 2026-05-07 16:52 | 50.90960 | -8.64359 | 36984 ft | 487 kts | 77° |
| 2026-05-07 16:53 | 50.92459 | -8.53903 | 37000 ft | 486 kts | 77° |
| 2026-05-07 16:53 | 50.93940 | -8.43505 | 37000 ft | 487 kts | 77° |
| 2026-05-07 16:54 | 50.95421 | -8.33030 | 36997 ft | 487 kts | 77° |
| 2026-05-07 16:54 | 50.96893 | -8.22546 | 36998 ft | 487 kts | 77° |
| 2026-05-07 16:55 | 50.98357 | -8.12053 | 37003 ft | 487 kts | 77° |
| 2026-05-07 16:55 | 50.99776 | -8.01622 | 36997 ft | 487 kts | 81° |
| 2026-05-07 16:56 | 51.00580 | -7.90956 | 36999 ft | 487 kts | 85° |
| 2026-05-07 16:56 | 51.01525 | -7.74904 | 37000 ft | 487 kts | 85° |
| 2026-05-07 16:57 | 51.02125 | -7.64280 | 37004 ft | 487 kts | 85° |
| 2026-05-07 16:57 | 51.02728 | -7.53576 | 36996 ft | 486 kts | 86° |
| 2026-05-07 16:58 | 51.03326 | -7.42870 | 37001 ft | 487 kts | 86° |
| 2026-05-07 16:58 | 51.03915 | -7.32152 | 37001 ft | 487 kts | 86° |
| 2026-05-07 16:59 | 51.04490 | -7.21496 | 37001 ft | 487 kts | 86° |
| 2026-05-07 16:59 | 51.05059 | -7.10771 | 37004 ft | 487 kts | 86° |
| 2026-05-07 17:00 | 51.05618 | -7.00040 | 37011 ft | 487 kts | 86° |
| 2026-05-07 17:00 | 51.06167 | -6.89308 | 37006 ft | 487 kts | 86° |
| 2026-05-07 17:01 | 51.06703 | -6.78653 | 37005 ft | 487 kts | 86° |
| 2026-05-07 17:01 | 51.07232 | -6.67920 | 37004 ft | 487 kts | 86° |
| 2026-05-07 17:02 | 51.07752 | -6.57189 | 37004 ft | 486 kts | 87° |
| 2026-05-07 17:02 | 51.08261 | -6.46478 | 37007 ft | 485 kts | 87° |
| 2026-05-07 17:03 | 51.08759 | -6.35776 | 37004 ft | 485 kts | 87° |
| 2026-05-07 17:03 | 51.09244 | -6.25137 | 37004 ft | 485 kts | 87° |
| 2026-05-07 17:04 | 51.09723 | -6.14427 | 37001 ft | 485 kts | 88° |
| 2026-05-07 17:04 | 51.10192 | -6.03732 | 37007 ft | 485 kts | 88° |
| 2026-05-07 17:05 | 51.10650 | -5.93028 | 37007 ft | 485 kts | 88° |
| 2026-05-07 17:05 | 51.11096 | -5.82407 | 37007 ft | 485 kts | 88° |
| 2026-05-07 17:06 | 51.11535 | -5.71705 | 37007 ft | 485 kts | 88° |
| 2026-05-07 17:06 | 51.11965 | -5.60992 | 37007 ft | 484 kts | 88° |
| 2026-05-07 17:07 | 51.12384 | -5.50310 | 37007 ft | 484 kts | 88° |
| 2026-05-07 17:07 | 51.12790 | -5.39686 | 37007 ft | 484 kts | 88° |
| 2026-05-07 17:08 | 51.13190 | -5.28987 | 37007 ft | 484 kts | 88° |
| 2026-05-07 17:08 | 51.13580 | -5.18294 | 37007 ft | 484 kts | 88° |
| 2026-05-07 17:09 | 51.13960 | -5.07596 | 37004 ft | 484 kts | 88° |
| 2026-05-07 17:09 | 51.14328 | -4.96964 | 37004 ft | 484 kts | 89° |
| 2026-05-07 17:10 | 51.14688 | -4.86268 | 37004 ft | 484 kts | 89° |
| 2026-05-07 17:10 | 51.15039 | -4.75568 | 37004 ft | 484 kts | 89° |
| 2026-05-07 17:11 | 51.15380 | -4.64861 | 37004 ft | 484 kts | 89° |
| 2026-05-07 17:11 | 51.15709 | -4.54241 | 37004 ft | 484 kts | 89° |
| 2026-05-07 17:12 | 51.16031 | -4.43538 | 37004 ft | 484 kts | 89° |
| 2026-05-07 17:12 | 51.16342 | -4.32832 | 37004 ft | 484 kts | 89° |
| 2026-05-07 17:13 | 51.16644 | -4.22132 | 37001 ft | 484 kts | 89° |
| 2026-05-07 17:13 | 51.16934 | -4.11496 | 37002 ft | 484 kts | 89° |
| 2026-05-07 17:14 | 51.17217 | -4.00792 | 37008 ft | 484 kts | 89° |
| 2026-05-07 17:14 | 51.17490 | -3.90078 | 37007 ft | 484 kts | 89° |
| 2026-05-07 17:15 | 51.17754 | -3.79367 | 37037 ft | 484 kts | 89° |
| 2026-05-07 17:15 | 51.18473 | -3.68714 | 37244 ft | 489 kts | 83° |
| 2026-05-07 17:16 | 51.18987 | -3.63354 | 37432 ft | 489 kts | 82° |
| 2026-05-07 17:16 | 51.19526 | -3.58003 | 37599 ft | 489 kts | 82° |
| 2026-05-07 17:16 | 51.20074 | -3.52652 | 37760 ft | 489 kts | 82° |
| 2026-05-07 17:16 | 51.20623 | -3.47294 | 37916 ft | 490 kts | 82° |
| 2026-05-07 17:17 | 51.21168 | -3.41938 | 38060 ft | 490 kts | 82° |
| 2026-05-07 17:17 | 51.21708 | -3.36573 | 38216 ft | 491 kts | 82° |
| 2026-05-07 17:17 | 51.22244 | -3.31195 | 38340 ft | 491 kts | 82° |
| 2026-05-07 17:17 | 51.22777 | -3.25813 | 38502 ft | 491 kts | 82° |
| 2026-05-07 17:18 | 51.23299 | -3.20500 | 38648 ft | 491 kts | 82° |
| 2026-05-07 17:18 | 51.23825 | -3.15125 | 38778 ft | 491 kts | 82° |
| 2026-05-07 17:18 | 51.24349 | -3.09736 | 38893 ft | 491 kts | 82° |
| 2026-05-07 17:18 | 51.24871 | -3.04344 | 38985 ft | 492 kts | 82° |
| 2026-05-07 17:19 | 51.25908 | -2.93559 | 39006 ft | 490 kts | 82° |
| 2026-05-07 17:19 | 51.26928 | -2.82836 | 39004 ft | 488 kts | 82° |
| 2026-05-07 17:20 | 51.27929 | -2.72217 | 39008 ft | 488 kts | 82° |
| 2026-05-07 17:20 | 51.28928 | -2.61497 | 39017 ft | 488 kts | 83° |
| 2026-05-07 17:21 | 51.29917 | -2.50786 | 39012 ft | 488 kts | 83° |
| 2026-05-07 17:21 | 51.30897 | -2.40057 | 39022 ft | 488 kts | 83° |
| 2026-05-07 17:22 | 51.31867 | -2.29339 | 39016 ft | 487 kts | 83° |
| 2026-05-07 17:22 | 51.32818 | -2.18713 | 39023 ft | 486 kts | 83° |
| 2026-05-07 17:23 | 51.33767 | -2.08000 | 39021 ft | 486 kts | 83° |
| 2026-05-07 17:23 | 51.35119 | -1.97420 | 39025 ft | 487 kts | 73° |
| 2026-05-07 17:24 | 51.37278 | -1.87139 | 39026 ft | 488 kts | 71° |
| 2026-05-07 17:24 | 51.39541 | -1.76958 | 39028 ft | 489 kts | 71° |
| 2026-05-07 17:25 | 51.41823 | -1.66708 | 39021 ft | 489 kts | 71° |
| 2026-05-07 17:25 | 51.44078 | -1.56437 | 39024 ft | 489 kts | 71° |
| 2026-05-07 17:26 | 51.46311 | -1.46155 | 39020 ft | 489 kts | 71° |
| 2026-05-07 17:26 | 51.48566 | -1.35947 | 39016 ft | 488 kts | 70° |
| 2026-05-07 17:27 | 51.50920 | -1.25647 | 39024 ft | 488 kts | 70° |
| 2026-05-07 17:27 | 51.53227 | -1.15477 | 39020 ft | 488 kts | 71° |
| 2026-05-07 17:28 | 51.55526 | -1.05214 | 39024 ft | 488 kts | 71° |
| 2026-05-07 17:28 | 51.57807 | -0.94946 | 39015 ft | 488 kts | 71° |
| 2026-05-07 17:29 | 51.60081 | -0.84660 | 39031 ft | 487 kts | 71° |
| 2026-05-07 17:29 | 51.62327 | -0.74453 | 39037 ft | 487 kts | 71° |
| 2026-05-07 17:30 | 51.64580 | -0.64166 | 39043 ft | 487 kts | 71° |
| 2026-05-07 17:30 | 51.66824 | -0.53869 | 39048 ft | 487 kts | 71° |
| 2026-05-07 17:31 | 51.69059 | -0.43555 | 39074 ft | 487 kts | 71° |
| 2026-05-07 17:31 | 51.71286 | -0.33233 | 39080 ft | 487 kts | 71° |
| 2026-05-07 17:32 | 51.73491 | -0.22964 | 39075 ft | 487 kts | 71° |
| 2026-05-07 17:32 | 51.75334 | -0.14336 | 39076 ft | 487 kts | 71° |
| 2026-05-07 17:33 | 51.77889 | -0.02316 | 39070 ft | 487 kts | 71° |
| 2026-05-07 17:33 | 51.80079 | 0.08046 | 39069 ft | 487 kts | 72° |
| 2026-05-07 17:34 | 51.82258 | 0.18409 | 39078 ft | 487 kts | 72° |
| 2026-05-07 17:34 | 51.84410 | 0.28693 | 39074 ft | 486 kts | 72° |
| 2026-05-07 17:35 | 51.86565 | 0.39048 | 39075 ft | 486 kts | 72° |
| 2026-05-07 17:35 | 51.88712 | 0.49415 | 39063 ft | 486 kts | 72° |
| 2026-05-07 17:36 | 51.90851 | 0.59798 | 39068 ft | 486 kts | 72° |
| 2026-05-07 17:36 | 51.92963 | 0.70106 | 39063 ft | 486 kts | 72° |
| 2026-05-07 17:37 | 51.95081 | 0.80494 | 39074 ft | 486 kts | 72° |
| 2026-05-07 17:37 | 51.97191 | 0.90901 | 39076 ft | 486 kts | 72° |
| 2026-05-07 17:38 | 51.99292 | 1.01316 | 39076 ft | 486 kts | 72° |
| 2026-05-07 17:38 | 52.01371 | 1.11675 | 39077 ft | 485 kts | 72° |
| 2026-05-07 17:39 | 52.03446 | 1.22076 | 39075 ft | 485 kts | 73° |
| 2026-05-07 17:39 | 52.05518 | 1.32513 | 39076 ft | 485 kts | 73° |
| 2026-05-07 17:40 | 52.07578 | 1.42943 | 39075 ft | 485 kts | 73° |
| 2026-05-07 17:40 | 52.09614 | 1.53310 | 39078 ft | 485 kts | 73° |
| 2026-05-07 17:41 | 52.11654 | 1.63754 | 39091 ft | 485 kts | 73° |
| 2026-05-07 17:41 | 52.13686 | 1.74217 | 39081 ft | 485 kts | 73° |
| 2026-05-07 17:42 | 52.15708 | 1.84682 | 39082 ft | 485 kts | 73° |
| 2026-05-07 17:42 | 52.17720 | 1.95152 | 39077 ft | 485 kts | 73° |
| 2026-05-07 17:43 | 52.19708 | 2.05559 | 39075 ft | 485 kts | 73° |
| 2026-05-07 17:43 | 52.21694 | 2.16009 | 39086 ft | 485 kts | 73° |
| 2026-05-07 17:44 | 52.23679 | 2.26512 | 39085 ft | 485 kts | 73° |
| 2026-05-07 17:44 | 52.25654 | 2.37020 | 39085 ft | 484 kts | 73° |
| 2026-05-07 17:45 | 52.27878 | 2.47322 | 39073 ft | 484 kts | 68° |
| 2026-05-07 17:45 | 52.30476 | 2.57464 | 39093 ft | 484 kts | 68° |
| 2026-05-07 17:46 | 52.33097 | 2.67596 | 39095 ft | 484 kts | 68° |
| 2026-05-07 17:46 | 52.35721 | 2.77745 | 39085 ft | 484 kts | 68° |
| 2026-05-07 17:47 | 52.38336 | 2.87905 | 39082 ft | 484 kts | 68° |
| 2026-05-07 17:47 | 52.40914 | 2.97977 | 39073 ft | 484 kts | 68° |
| 2026-05-07 17:48 | 52.43503 | 3.08138 | 39091 ft | 484 kts | 68° |
| 2026-05-07 17:48 | 52.46088 | 3.18331 | 39089 ft | 484 kts | 68° |
| 2026-05-07 17:49 | 52.48665 | 3.28540 | 39086 ft | 484 kts | 68° |
| 2026-05-07 17:49 | 52.51231 | 3.38749 | 39100 ft | 484 kts | 68° |
| 2026-05-07 17:50 | 52.53764 | 3.48876 | 39096 ft | 483 kts | 68° |
| 2026-05-07 17:50 | 52.56310 | 3.59099 | 39091 ft | 483 kts | 68° |
| 2026-05-07 17:51 | 52.58844 | 3.69326 | 39092 ft | 483 kts | 68° |
| 2026-05-07 17:51 | 52.61373 | 3.79573 | 39093 ft | 483 kts | 68° |
| 2026-05-07 17:52 | 52.63875 | 3.89763 | 39090 ft | 483 kts | 69° |
| 2026-05-07 17:52 | 52.66384 | 4.00027 | 39085 ft | 483 kts | 69° |
| 2026-05-07 17:53 | 52.68878 | 4.10277 | 39087 ft | 483 kts | 69° |
| 2026-05-07 17:53 | 52.71370 | 4.20570 | 39087 ft | 483 kts | 69° |
| 2026-05-07 17:54 | 52.73848 | 4.30861 | 39084 ft | 483 kts | 69° |
| 2026-05-07 17:54 | 52.76314 | 4.41163 | 39084 ft | 483 kts | 69° |
| 2026-05-07 17:55 | 52.78756 | 4.51397 | 39093 ft | 482 kts | 69° |
| 2026-05-07 17:55 | 52.81160 | 4.61519 | 39092 ft | 482 kts | 69° |
| 2026-05-07 17:56 | 52.83597 | 4.71824 | 39104 ft | 483 kts | 69° |
| 2026-05-07 17:56 | 52.86012 | 4.82086 | 39103 ft | 483 kts | 69° |
| 2026-05-07 17:57 | 52.88029 | 4.90692 | 39104 ft | 483 kts | 69° |
| 2026-05-07 17:57 | 52.90840 | 5.02747 | 39104 ft | 483 kts | 69° |
| 2026-05-07 17:58 | 52.93246 | 5.13120 | 39097 ft | 482 kts | 70° |
| 2026-05-07 17:58 | 52.95634 | 5.23463 | 39095 ft | 482 kts | 70° |
| 2026-05-07 17:59 | 52.98020 | 5.33849 | 39088 ft | 482 kts | 70° |
| 2026-05-07 17:59 | 53.00397 | 5.44244 | 39089 ft | 482 kts | 70° |
| 2026-05-07 18:00 | 53.02747 | 5.54575 | 39096 ft | 482 kts | 70° |
| 2026-05-07 18:00 | 53.05105 | 5.64994 | 39096 ft | 482 kts | 70° |
| 2026-05-07 18:01 | 53.07460 | 5.75448 | 39101 ft | 482 kts | 70° |
| 2026-05-07 18:01 | 53.09792 | 5.85853 | 39096 ft | 482 kts | 70° |
| 2026-05-07 18:02 | 53.13263 | 6.01439 | 39098 ft | 481 kts | 70° |
| 2026-05-07 18:03 | 53.15564 | 6.11834 | 39096 ft | 481 kts | 70° |
| 2026-05-07 18:03 | 53.17864 | 6.22276 | 39089 ft | 481 kts | 70° |
| 2026-05-07 18:04 | 53.20160 | 6.32755 | 39089 ft | 481 kts | 70° |
| 2026-05-07 18:04 | 53.22436 | 6.43192 | 39082 ft | 481 kts | 71° |
| 2026-05-07 18:05 | 53.24714 | 6.53694 | 39081 ft | 481 kts | 71° |
| 2026-05-07 18:05 | 53.26986 | 6.64222 | 39099 ft | 481 kts | 71° |
| 2026-05-07 18:06 | 53.29247 | 6.74755 | 39093 ft | 482 kts | 71° |
| 2026-05-07 18:06 | 53.30922 | 6.82593 | 39090 ft | 482 kts | 71° |
| 2026-05-07 18:07 | 53.33153 | 6.93078 | 39098 ft | 482 kts | 71° |
| 2026-05-07 18:07 | 53.35390 | 7.03646 | 39100 ft | 482 kts | 71° |
| 2026-05-07 18:08 | 53.37617 | 7.14222 | 38955 ft | 479 kts | 71° |
| 2026-05-07 18:08 | 53.38710 | 7.19430 | 38059 ft | 475 kts | 71° |
| 2026-05-07 18:08 | 53.39805 | 7.24668 | 36976 ft | 470 kts | 71° |
| 2026-05-07 18:08 | 53.40873 | 7.29787 | 36385 ft | 462 kts | 71° |
| 2026-05-07 18:09 | 53.41931 | 7.34869 | 35751 ft | 464 kts | 71° |
| 2026-05-07 18:09 | 53.42996 | 7.40000 | 35076 ft | 467 kts | 71° |
| 2026-05-07 18:09 | 53.44045 | 7.45069 | 34473 ft | 468 kts | 71° |
| 2026-05-07 18:09 | 53.45111 | 7.50244 | 33896 ft | 468 kts | 71° |
| 2026-05-07 18:10 | 53.46166 | 7.55375 | 32975 ft | 464 kts | 71° |
| 2026-05-07 18:10 | 53.47207 | 7.60442 | 32047 ft | 452 kts | 71° |
| 2026-05-07 18:10 | 53.48211 | 7.65342 | 31265 ft | 440 kts | 71° |
| 2026-05-07 18:10 | 53.49215 | 7.70260 | 30529 ft | 451 kts | 71° |
| 2026-05-07 18:11 | 53.50235 | 7.75263 | 29925 ft | 453 kts | 71° |
| 2026-05-07 18:11 | 53.50910 | 7.78583 | 29298 ft | 454 kts | 71° |
| 2026-05-07 18:11 | 53.52280 | 7.85334 | 28320 ft | 455 kts | 71° |
| 2026-05-07 18:11 | 53.53294 | 7.90347 | 27741 ft | 451 kts | 71° |
| 2026-05-07 18:12 | 53.54285 | 7.95255 | 27201 ft | 448 kts | 71° |
| 2026-05-07 18:12 | 53.55283 | 8.00214 | 26614 ft | 451 kts | 71° |
| 2026-05-07 18:12 | 53.56295 | 8.05248 | 25881 ft | 457 kts | 71° |
| 2026-05-07 18:12 | 53.57310 | 8.10315 | 25128 ft | 456 kts | 71° |
| 2026-05-07 18:13 | 53.58306 | 8.15304 | 24443 ft | 441 kts | 71° |
| 2026-05-07 18:13 | 53.59279 | 8.20184 | 23799 ft | 441 kts | 71° |
| 2026-05-07 18:13 | 53.60252 | 8.25077 | 23057 ft | 441 kts | 71° |
| 2026-05-07 18:13 | 53.61222 | 8.29968 | 22330 ft | 438 kts | 71° |
| 2026-05-07 18:14 | 53.62180 | 8.34799 | 21600 ft | 432 kts | 71° |
| 2026-05-07 18:14 | 53.63128 | 8.39588 | 20902 ft | 430 kts | 71° |
| 2026-05-07 18:14 | 53.64066 | 8.44340 | 20234 ft | 426 kts | 71° |
| 2026-05-07 18:14 | 53.64993 | 8.49055 | 19566 ft | 421 kts | 71° |
| 2026-05-07 18:15 | 53.65895 | 8.53657 | 18921 ft | 417 kts | 71° |
| 2026-05-07 18:15 | 53.66796 | 8.58270 | 18260 ft | 412 kts | 71° |
| 2026-05-07 18:15 | 53.67687 | 8.62837 | 17531 ft | 408 kts | 71° |
| 2026-05-07 18:15 | 53.68565 | 8.67355 | 16824 ft | 404 kts | 71° |
| 2026-05-07 18:16 | 53.69433 | 8.71826 | 16137 ft | 401 kts | 71° |
| 2026-05-07 18:16 | 53.70298 | 8.76296 | 15489 ft | 397 kts | 72° |
| 2026-05-07 18:16 | 53.71151 | 8.80713 | 14866 ft | 394 kts | 72° |
| 2026-05-07 18:16 | 53.71986 | 8.85045 | 14270 ft | 390 kts | 72° |
| 2026-05-07 18:17 | 53.72819 | 8.89378 | 13639 ft | 387 kts | 72° |
| 2026-05-07 18:17 | 53.73643 | 8.93678 | 12967 ft | 382 kts | 72° |
| 2026-05-07 18:17 | 53.74445 | 8.97870 | 12316 ft | 377 kts | 72° |
| 2026-05-07 18:17 | 53.75245 | 9.02056 | 11677 ft | 373 kts | 72° |
| 2026-05-07 18:18 | 53.76035 | 9.06203 | 10999 ft | 367 kts | 72° |
| 2026-05-07 18:18 | 53.76806 | 9.10259 | 9751 ft | 362 kts | 72° |
| 2026-05-07 18:18 | 53.77578 | 9.14327 | 8663 ft | 362 kts | 72° |
| 2026-05-07 18:18 | 53.78109 | 9.18396 | 8188 ft | 345 kts | 86° |
| 2026-05-07 18:19 | 53.77829 | 9.22232 | 7705 ft | 316 kts | 108° |
| 2026-05-07 18:19 | 53.76773 | 9.25308 | 7218 ft | 294 kts | 131° |
| 2026-05-07 18:19 | 53.75258 | 9.27496 | 6611 ft | 281 kts | 141° |
| 2026-05-07 18:19 | 53.73687 | 9.29361 | 6055 ft | 268 kts | 143° |
| 2026-05-07 18:20 | 53.72221 | 9.31068 | 5690 ft | 251 kts | 144° |
| 2026-05-07 18:20 | 53.70818 | 9.32704 | 5250 ft | 240 kts | 143° |
| 2026-05-07 18:20 | 53.69457 | 9.34280 | 4798 ft | 235 kts | 143° |
| 2026-05-07 18:20 | 53.68120 | 9.35796 | 4537 ft | 229 kts | 144° |
| 2026-05-07 18:21 | 53.66805 | 9.37277 | 4327 ft | 225 kts | 144° |
| 2026-05-07 18:21 | 53.65507 | 9.38735 | 4051 ft | 224 kts | 144° |
| 2026-05-07 18:21 | 53.64215 | 9.40200 | 3784 ft | 223 kts | 144° |
| 2026-05-07 18:21 | 53.62930 | 9.41658 | 3530 ft | 222 kts | 143° |
| 2026-05-07 18:22 | 53.61662 | 9.43086 | 3257 ft | 223 kts | 144° |
| 2026-05-07 18:22 | 53.61228 | 9.43577 | 3142 ft | 223 kts | 144° |
| 2026-05-07 18:22 | 53.59213 | 9.46207 | 3005 ft | 220 kts | 129° |
| 2026-05-07 18:22 | 53.58278 | 9.48227 | 3003 ft | 219 kts | 124° |
| 2026-05-07 18:23 | 53.57388 | 9.50308 | 3003 ft | 219 kts | 124° |
| 2026-05-07 18:23 | 53.56505 | 9.52384 | 3001 ft | 217 kts | 124° |
| 2026-05-07 18:23 | 53.55626 | 9.54446 | 2999 ft | 217 kts | 124° |
| 2026-05-07 18:23 | 53.54746 | 9.56512 | 3000 ft | 217 kts | 124° |
| 2026-05-07 18:24 | 53.54165 | 9.57881 | 3000 ft | 217 kts | 124° |
| 2026-05-07 18:24 | 53.53008 | 9.60615 | 3001 ft | 217 kts | 124° |
| 2026-05-07 18:24 | 53.52135 | 9.62680 | 3002 ft | 217 kts | 123° |
| 2026-05-07 18:24 | 53.51254 | 9.64750 | 3002 ft | 217 kts | 124° |
| 2026-05-07 18:25 | 53.50459 | 9.66898 | 2998 ft | 216 kts | 109° |
| 2026-05-07 18:25 | 53.50283 | 9.68525 | 3006 ft | 214 kts | 88° |
| 2026-05-07 18:25 | 53.50660 | 9.71801 | 3005 ft | 215 kts | 75° |
| 2026-05-07 18:25 | 53.50934 | 9.73392 | 3002 ft | 215 kts | 74° |
| 2026-05-07 18:26 | 53.51583 | 9.75652 | 3002 ft | 216 kts | 56° |
| 2026-05-07 18:26 | 53.52532 | 9.77610 | 2982 ft | 216 kts | 50° |
| 2026-05-07 18:26 | 53.53796 | 9.80148 | 2635 ft | 210 kts | 52° |
| 2026-05-07 18:26 | 53.54412 | 9.81406 | 2422 ft | 202 kts | 52° |
| 2026-05-07 18:27 | 53.55271 | 9.83135 | 2167 ft | 181 kts | 52° |
| 2026-05-07 18:27 | 53.56034 | 9.84674 | 1928 ft | 162 kts | 52° |
| 2026-05-07 18:27 | 53.56716 | 9.86055 | 1720 ft | 147 kts | 52° |
| 2026-05-07 18:27 | 53.57334 | 9.87304 | 1496 ft | 136 kts | 51° |
| 2026-05-07 18:28 | 53.57936 | 9.88519 | 1328 ft | 135 kts | 52° |
| 2026-05-07 18:28 | 53.58539 | 9.89737 | 1134 ft | 136 kts | 52° |
| 2026-05-07 18:28 | 53.59138 | 9.90948 | 950 ft | 133 kts | 52° |
| 2026-05-07 18:28 | 53.59730 | 9.92145 | 772 ft | 132 kts | 50° |
| 2026-05-07 18:29 | 53.60312 | 9.93314 | 565 ft | 128 kts | 49° |
| 2026-05-07 18:29 | 53.60885 | 9.94432 | 414 ft | 130 kts | 53° |
| 2026-05-07 18:29 | 53.61462 | 9.95632 | 248 ft | 134 kts | 53° |
| 2026-05-07 18:29 | 53.62071 | 9.96858 | 57 ft | 136 kts | 51° |
| 2026-05-07 18:30 | 53.62606 | 9.97944 | 47 ft | 97 kts | 51° |
| 2026-05-07 18:30 | 53.62915 | 9.98576 | 47 ft | 48 kts | 50° |
| 2026-05-07 18:30 | 53.63068 | 9.98894 | 48 ft | 52 kts | 51° |
| 2026-05-07 18:30 | 53.63300 | 9.99399 | 47 ft | 38 kts | 79° |
| 2026-05-07 18:31 | 53.63281 | 9.99620 | 48 ft | 12 kts | 99° |
| 2026-05-07 18:31 | 53.63278 | 9.99651 | 49 ft | 0 kts | 99° |
| 2026-05-07 18:32 | 53.63275 | 9.99673 | 49 ft | 4 kts | 101° |
| 2026-05-07 18:32 | 53.63263 | 9.99718 | 49 ft | 7 kts | 124° |
| 2026-05-07 18:32 | 53.63206 | 9.99778 | 49 ft | 11 kts | 154° |
| 2026-05-07 18:32 | 53.63124 | 9.99848 | 49 ft | 15 kts | 153° |
| 2026-05-07 18:33 | 53.63038 | 9.99922 | 49 ft | 12 kts | 153° |
| 2026-05-07 18:33 | 53.62967 | 9.99987 | 50 ft | 11 kts | 147° |
| 2026-05-07 18:33 | 53.62933 | 10.00062 | 50 ft | 5 kts | 72° |
| 2026-05-07 18:33 | 53.62974 | 10.00122 | 50 ft | 11 kts | 37° |
| 2026-05-07 18:34 | 53.63049 | 10.00198 | 49 ft | 8 kts | 27° |
| 2026-05-07 18:34 | 53.63059 | 10.00207 | 46 ft | 3 kts | 26° |
| 2026-05-07 18:34 | 53.63084 | 10.00229 | 49 ft | 2 kts | 33° |
| 2026-05-07 18:34 | 53.63095 | 10.00254 | 50 ft | 4 kts | 60° |
| 2026-05-07 18:35 | 53.63103 | 10.00313 | 50 ft | 8 kts | 85° |
| 2026-05-07 18:35 | 53.63105 | 10.00344 | 50 ft | 4 kts | 85° |
| 2026-05-07 18:35 | 53.63106 | 10.00378 | 50 ft | 2 kts | 87° |
| 2026-05-07 18:35 | 53.63106 | 10.00382 | 50 ft | 0 kts | 87° |